<?xml version="1.0" encoding="UTF-8"?>
<gpx version="1.1" creator="https://www.youtrack.es" xsi:schemaLocation="http://www.topografix.com/GPX/1/1 http://www.topografix.com/GPX/1/1/gpx.xsd http://www.garmin.com/xmlschemas/GpxExtensions/v3 http://www.garmin.com/xmlschemas/GpxExtensionsv3.xsd http://www.garmin.com/xmlschemas/TrackPointExtension/v1 http://www.garmin.com/xmlschemas/TrackPointExtensionv1.xsd" xmlns:gpxtpx="http://www.garmin.com/xmlschemas/TrackPointExtension/v1" xmlns:gpxx="http://www.garmin.com/xmlschemas/GpxExtensions/v3" xmlns:xsi="http://www.w3.org/2001/XMLSchema-instance">
  <metadata>
    <author>
      <name>Gustavo Moreno Domínguez</name>
      <email id="gustavomordom" domain="gmail.com"/>
    </author>
    <link href="https://www.youtrack.es">
      <text>YouTrack.es</text>
    </link>
    <time>2026-05-08T17:04:24Z</time>
  </metadata>
  <trk>
    <src>https://www.youtrack.es</src>
    <link href="https://www.youtrack.es/ruta/9298-circular-guiniguada">
      <text>YouTrack.es</text>
    </link>
    <trkseg>
      <trkpt lat="28.07078749540642" lon="-15.461132526397707">
        <ele>241.25572204589844</ele>
        <time>2019-11-01T11:19:12.000Z</time>
      </trkpt>
      <trkpt lat="28.071112135252328" lon="-15.461122398999123">
        <ele>238.92015075683594</ele>
        <time>2019-11-01T11:19:12.054Z</time>
      </trkpt>
      <trkpt lat="28.071230000000003" lon="-15.461060000000002">
        <ele>237.9136199951172</ele>
        <time>2019-11-01T11:19:12.130Z</time>
      </trkpt>
      <trkpt lat="28.071360000000002" lon="-15.461020000000001">
        <ele>236.9417724609375</ele>
        <time>2019-11-01T11:19:12.228Z</time>
      </trkpt>
      <trkpt lat="28.071363738837615" lon="-15.461022265648126">
        <ele>236.9302215576172</ele>
        <time>2019-11-01T11:19:12.327Z</time>
      </trkpt>
      <trkpt lat="28.071640000000002" lon="-15.460970000000001">
        <ele>235.0220947265625</ele>
        <time>2019-11-01T11:19:12.472Z</time>
      </trkpt>
      <trkpt lat="28.071800000000003" lon="-15.4609">
        <ele>233.726318359375</ele>
        <time>2019-11-01T11:19:12.646Z</time>
      </trkpt>
      <trkpt lat="28.072000000000003" lon="-15.460860000000002">
        <ele>232.3345489501953</ele>
        <time>2019-11-01T11:19:12.854Z</time>
      </trkpt>
      <trkpt lat="28.072090000000003" lon="-15.460840000000001">
        <ele>231.6986541748047</ele>
        <time>2019-11-01T11:19:13.077Z</time>
      </trkpt>
      <trkpt lat="28.072160000000004" lon="-15.460790000000001">
        <ele>231.03875732421875</ele>
        <time>2019-11-01T11:19:13.314Z</time>
      </trkpt>
      <trkpt lat="28.072630000000004" lon="-15.460360000000001">
        <ele>226.6763916015625</ele>
        <time>2019-11-01T11:19:13.651Z</time>
      </trkpt>
      <trkpt lat="28.072820000000004" lon="-15.46033">
        <ele>225.72854614257812</ele>
        <time>2019-11-01T11:19:14.020Z</time>
      </trkpt>
      <trkpt lat="28.07289" lon="-15.46029">
        <ele>225.3446044921875</ele>
        <time>2019-11-01T11:19:14.402Z</time>
      </trkpt>
      <trkpt lat="28.072940000000003" lon="-15.460220000000001">
        <ele>225.02066040039062</ele>
        <time>2019-11-01T11:19:14.797Z</time>
      </trkpt>
      <trkpt lat="28.072960000000002" lon="-15.4601">
        <ele>224.78070068359375</ele>
        <time>2019-11-01T11:19:15.210Z</time>
      </trkpt>
      <trkpt lat="28.072943526069206" lon="-15.459894075861826">
        <ele>224.61270141601562</ele>
        <time>2019-11-01T11:19:15.654Z</time>
      </trkpt>
      <trkpt lat="28.072922230787803" lon="-15.459614396095278">
        <ele>224.4338836669922</ele>
        <time>2019-11-01T11:19:16.139Z</time>
      </trkpt>
      <trkpt lat="28.07289273945631" lon="-15.459413050622288">
        <ele>224.57540893554688</ele>
        <time>2019-11-01T11:19:16.654Z</time>
      </trkpt>
      <trkpt lat="28.072846960276365" lon="-15.459240982308984">
        <ele>223.58706665039062</ele>
        <time>2019-11-01T11:19:17.196Z</time>
      </trkpt>
      <trkpt lat="28.072838997468352" lon="-15.459187924861908">
        <ele>223.18600463867188</ele>
        <time>2019-11-01T11:19:17.746Z</time>
      </trkpt>
      <trkpt lat="28.072893982753158" lon="-15.459066973999143">
        <ele>222.44725036621094</ele>
        <time>2019-11-01T11:19:18.316Z</time>
      </trkpt>
      <trkpt lat="28.07298995554447" lon="-15.459025986492634">
        <ele>222.38247680664062</ele>
        <time>2019-11-01T11:19:18.903Z</time>
      </trkpt>
      <trkpt lat="28.073103949427605" lon="-15.458984998986125">
        <ele>222.3609619140625</ele>
        <time>2019-11-01T11:19:19.510Z</time>
      </trkpt>
      <trkpt lat="28.0732249841094" lon="-15.45893194153905">
        <ele>222.26943969726562</ele>
        <time>2019-11-01T11:19:20.138Z</time>
      </trkpt>
      <trkpt lat="28.073429921641946" lon="-15.458791963756084">
        <ele>221.71026611328125</ele>
        <time>2019-11-01T11:19:20.806Z</time>
      </trkpt>
      <trkpt lat="28.07348297908902" lon="-15.458750976249576">
        <ele>221.30238342285156</ele>
        <time>2019-11-01T11:19:21.485Z</time>
      </trkpt>
      <trkpt lat="28.073709961026907" lon="-15.458605969324708">
        <ele>219.6678009033203</ele>
        <time>2019-11-01T11:19:22.207Z</time>
      </trkpt>
      <trkpt lat="28.073768969625235" lon="-15.458584930747747">
        <ele>219.32919311523438</ele>
        <time>2019-11-01T11:19:22.940Z</time>
      </trkpt>
      <trkpt lat="28.073945995420218" lon="-15.458547966554761">
        <ele>218.47024536132812</ele>
        <time>2019-11-01T11:19:23.702Z</time>
      </trkpt>
      <trkpt lat="28.07406191714108" lon="-15.458539919927716">
        <ele>218.00473022460938</ele>
        <time>2019-11-01T11:19:24.484Z</time>
      </trkpt>
      <trkpt lat="28.074120925739408" lon="-15.458530951291323">
        <ele>217.73854064941406</ele>
        <time>2019-11-01T11:19:25.276Z</time>
      </trkpt>
      <trkpt lat="28.074178928509355" lon="-15.458517959341407">
        <ele>217.45181274414062</ele>
        <time>2019-11-01T11:19:26.078Z</time>
      </trkpt>
      <trkpt lat="28.074462991207838" lon="-15.458464985713363">
        <ele>216.35171508789062</ele>
        <time>2019-11-01T11:19:26.927Z</time>
      </trkpt>
      <trkpt lat="28.07461797259748" lon="-15.45843992382288">
        <ele>215.8294677734375</ele>
        <time>2019-11-01T11:19:27.802Z</time>
      </trkpt>
      <trkpt lat="28.074668934568763" lon="-15.458422992378473">
        <ele>215.61209106445312</ele>
        <time>2019-11-01T11:19:28.686Z</time>
      </trkpt>
      <trkpt lat="28.074766919016838" lon="-15.458368929103017">
        <ele>215.1580352783203</ele>
        <time>2019-11-01T11:19:29.588Z</time>
      </trkpt>
      <trkpt lat="28.074849983677268" lon="-15.45830698683858">
        <ele>214.63780212402344</ele>
        <time>2019-11-01T11:19:30.507Z</time>
      </trkpt>
      <trkpt lat="28.07488191872835" lon="-15.458281924948096">
        <ele>214.4273223876953</ele>
        <time>2019-11-01T11:19:31.432Z</time>
      </trkpt>
      <trkpt lat="28.07490195147693" lon="-15.458269938826561">
        <ele>214.32664489746094</ele>
        <time>2019-11-01T11:19:32.361Z</time>
      </trkpt>
      <trkpt lat="28.07489792816341" lon="-15.458281924948096">
        <ele>214.4273223876953</ele>
        <time>2019-11-01T11:19:33.292Z</time>
      </trkpt>
      <trkpt lat="28.074880996719003" lon="-15.458292989060283">
        <ele>214.52024841308594</ele>
        <time>2019-11-01T11:19:34.226Z</time>
      </trkpt>
      <trkpt lat="28.074869932606816" lon="-15.458298940211535">
        <ele>214.57022094726562</ele>
        <time>2019-11-01T11:19:35.162Z</time>
      </trkpt>
      <trkpt lat="28.074802961200476" lon="-15.458356942981482">
        <ele>215.05735778808594</ele>
        <time>2019-11-01T11:19:36.112Z</time>
      </trkpt>
      <trkpt lat="28.074804972857237" lon="-15.45835291966796">
        <ele>215.02357482910156</ele>
        <time>2019-11-01T11:19:37.063Z</time>
      </trkpt>
      <trkpt lat="28.074836991727352" lon="-15.458321990445256">
        <ele>214.76380920410156</ele>
        <time>2019-11-01T11:19:38.021Z</time>
      </trkpt>
      <trkpt lat="28.07496498338878" lon="-15.458276979625225">
        <ele>214.3857879638672</ele>
        <time>2019-11-01T11:19:39.001Z</time>
      </trkpt>
      <trkpt lat="28.075012927874923" lon="-15.45826692134142">
        <ele>214.3013153076172</ele>
        <time>2019-11-01T11:19:39.989Z</time>
      </trkpt>
      <trkpt lat="28.07517495006323" lon="-15.458257952705026">
        <ele>213.94296264648438</ele>
        <time>2019-11-01T11:19:41.004Z</time>
      </trkpt>
      <trkpt lat="28.07528299279511" lon="-15.458260970190167">
        <ele>213.57940673828125</ele>
        <time>2019-11-01T11:19:42.037Z</time>
      </trkpt>
      <trkpt lat="28.07545498944819" lon="-15.4582679271698">
        <ele>213.0187530517578</ele>
        <time>2019-11-01T11:19:43.099Z</time>
      </trkpt>
      <trkpt lat="28.07562497444451" lon="-15.458277985453606">
        <ele>212.4913787841797</ele>
        <time>2019-11-01T11:19:44.189Z</time>
      </trkpt>
      <trkpt lat="28.075679959729314" lon="-15.458271950483322">
        <ele>212.24278259277344</ele>
        <time>2019-11-01T11:19:45.288Z</time>
      </trkpt>
      <trkpt lat="28.075730921700597" lon="-15.458254935219884">
        <ele>211.91644287109375</ele>
        <time>2019-11-01T11:19:46.396Z</time>
      </trkpt>
      <trkpt lat="28.07577794417739" lon="-15.458233980461955">
        <ele>211.5712127685547</ele>
        <time>2019-11-01T11:19:47.513Z</time>
      </trkpt>
      <trkpt lat="28.075870983302593" lon="-15.458192992955446">
        <ele>210.89208984375</ele>
        <time>2019-11-01T11:19:48.646Z</time>
      </trkpt>
      <trkpt lat="28.076022947207093" lon="-15.458162985742092">
        <ele>209.64601135253906</ele>
        <time>2019-11-01T11:19:49.805Z</time>
      </trkpt>
      <trkpt lat="28.076073992997408" lon="-15.45815896242857">
        <ele>209.18350219726562</ele>
        <time>2019-11-01T11:19:50.972Z</time>
      </trkpt>
      <trkpt lat="28.0762349255383" lon="-15.458172960206866">
        <ele>207.94944763183594</ele>
        <time>2019-11-01T11:19:52.166Z</time>
      </trkpt>
      <trkpt lat="28.076326958835125" lon="-15.458203973248601">
        <ele>207.4369659423828</ele>
        <time>2019-11-01T11:19:53.376Z</time>
      </trkpt>
      <trkpt lat="28.076411951333284" lon="-15.458247978240252">
        <ele>207.0927276611328</ele>
        <time>2019-11-01T11:19:54.602Z</time>
      </trkpt>
      <trkpt lat="28.076522927731276" lon="-15.45826893299818">
        <ele>206.336669921875</ele>
        <time>2019-11-01T11:19:55.847Z</time>
      </trkpt>
      <trkpt lat="28.076592916622758" lon="-15.458259964361787">
        <ele>205.6735382080078</ele>
        <time>2019-11-01T11:19:57.103Z</time>
      </trkpt>
      <trkpt lat="28.07666198350489" lon="-15.45824395492673">
        <ele>204.95901489257812</ele>
        <time>2019-11-01T11:19:58.371Z</time>
      </trkpt>
      <trkpt lat="28.07678896933794" lon="-15.458209924399853">
        <ele>203.69923400878906</ele>
        <time>2019-11-01T11:19:59.661Z</time>
      </trkpt>
      <trkpt lat="28.076847977936268" lon="-15.458193998783827">
        <ele>203.28228759765625</ele>
        <time>2019-11-01T11:20:00.961Z</time>
      </trkpt>
      <trkpt lat="28.076956942677498" lon="-15.458148987963796">
        <ele>202.38131713867188</ele>
        <time>2019-11-01T11:20:02.280Z</time>
      </trkpt>
      <trkpt lat="28.07704797014594" lon="-15.458100959658623">
        <ele>201.5410919189453</ele>
        <time>2019-11-01T11:20:03.616Z</time>
      </trkpt>
      <trkpt lat="28.077093986794353" lon="-15.458082938566804">
        <ele>201.1688995361328</ele>
        <time>2019-11-01T11:20:04.960Z</time>
      </trkpt>
      <trkpt lat="28.077145954594016" lon="-15.458063995465636">
        <ele>200.76039123535156</ele>
        <time>2019-11-01T11:20:06.313Z</time>
      </trkpt>
      <trkpt lat="28.07719993405044" lon="-15.458038933575153">
        <ele>200.2908477783203</ele>
        <time>2019-11-01T11:20:07.676Z</time>
      </trkpt>
      <trkpt lat="28.077308982610703" lon="-15.45796299353242">
        <ele>199.1297149658203</ele>
        <time>2019-11-01T11:20:09.060Z</time>
      </trkpt>
      <trkpt lat="28.07736698538065" lon="-15.457927957177162">
        <ele>198.55709838867188</ele>
        <time>2019-11-01T11:20:10.455Z</time>
      </trkpt>
      <trkpt lat="28.077487936243415" lon="-15.457864925265312">
        <ele>197.44725036621094</ele>
        <time>2019-11-01T11:20:11.872Z</time>
      </trkpt>
      <trkpt lat="28.077609976753592" lon="-15.457847993820906">
        <ele>196.78289794921875</ele>
        <time>2019-11-01T11:20:13.309Z</time>
      </trkpt>
      <trkpt lat="28.077717935666442" lon="-15.457869954407215">
        <ele>196.96734619140625</ele>
        <time>2019-11-01T11:20:14.765Z</time>
      </trkpt>
      <trkpt lat="28.077810974791646" lon="-15.457928963005543">
        <ele>196.5613250732422</ele>
        <time>2019-11-01T11:20:16.238Z</time>
      </trkpt>
      <trkpt lat="28.077851962298155" lon="-15.45796592719853">
        <ele>196.40414428710938</ele>
        <time>2019-11-01T11:20:17.720Z</time>
      </trkpt>
      <trkpt lat="28.07788892649114" lon="-15.457998951897025">
        <ele>196.24713134765625</ele>
        <time>2019-11-01T11:20:19.210Z</time>
      </trkpt>
      <trkpt lat="28.07792597450316" lon="-15.45803097076714">
        <ele>196.02488708496094</ele>
        <time>2019-11-01T11:20:20.708Z</time>
      </trkpt>
      <trkpt lat="28.077962938696146" lon="-15.45804899185896">
        <ele>195.8031463623047</ele>
        <time>2019-11-01T11:20:22.212Z</time>
      </trkpt>
      <trkpt lat="28.078044997528195" lon="-15.458069946616888">
        <ele>195.3108673095703</ele>
        <time>2019-11-01T11:20:23.730Z</time>
      </trkpt>
      <trkpt lat="28.078129990026355" lon="-15.458108922466636">
        <ele>194.80099487304688</ele>
        <time>2019-11-01T11:20:25.264Z</time>
      </trkpt>
      <trkpt lat="28.07820794172585" lon="-15.45817798934877">
        <ele>194.3333740234375</ele>
        <time>2019-11-01T11:20:26.814Z</time>
      </trkpt>
      <trkpt lat="28.07824599556625" lon="-15.458211936056614">
        <ele>194.0633087158203</ele>
        <time>2019-11-01T11:20:28.372Z</time>
      </trkpt>
      <trkpt lat="28.07828899472952" lon="-15.458238925784826">
        <ele>193.7213897705078</ele>
        <time>2019-11-01T11:20:29.938Z</time>
      </trkpt>
      <trkpt lat="28.07844095863402" lon="-15.45824395492673">
        <ele>192.63429260253906</ele>
        <time>2019-11-01T11:20:31.530Z</time>
      </trkpt>
      <trkpt lat="28.078535925596952" lon="-15.458188969641924">
        <ele>192.13055419921875</ele>
        <time>2019-11-01T11:20:33.139Z</time>
      </trkpt>
      <trkpt lat="28.078663917258382" lon="-15.458078999072313">
        <ele>191.4946746826172</ele>
        <time>2019-11-01T11:20:34.775Z</time>
      </trkpt>
      <trkpt lat="28.0787009652704" lon="-15.458039939403534">
        <ele>191.3192901611328</ele>
        <time>2019-11-01T11:20:36.420Z</time>
      </trkpt>
      <trkpt lat="28.078776989132166" lon="-15.457983948290348">
        <ele>190.93040466308594</ele>
        <time>2019-11-01T11:20:38.080Z</time>
      </trkpt>
      <trkpt lat="28.078857958316803" lon="-15.45798696577549">
        <ele>190.44105529785156</ele>
        <time>2019-11-01T11:20:39.753Z</time>
      </trkpt>
      <trkpt lat="28.078966923058033" lon="-15.458090985193849">
        <ele>189.66256713867188</ele>
        <time>2019-11-01T11:20:41.450Z</time>
      </trkpt>
      <trkpt lat="28.079099943861365" lon="-15.45822392217815">
        <ele>189.350830078125</ele>
        <time>2019-11-01T11:20:43.176Z</time>
      </trkpt>
      <trkpt lat="28.079146966338158" lon="-15.45826893299818">
        <ele>189.8981170654297</ele>
        <time>2019-11-01T11:20:44.913Z</time>
      </trkpt>
      <trkpt lat="28.07919398881495" lon="-15.458300951868296">
        <ele>190.33627319335938</ele>
        <time>2019-11-01T11:20:46.659Z</time>
      </trkpt>
      <trkpt lat="28.07923899963498" lon="-15.458319978788495">
        <ele>190.6580810546875</ele>
        <time>2019-11-01T11:20:48.413Z</time>
      </trkpt>
      <trkpt lat="28.079320974648" lon="-15.458314949646592">
        <ele>190.56719970703125</ele>
        <time>2019-11-01T11:20:50.181Z</time>
      </trkpt>
      <trkpt lat="28.07939196936786" lon="-15.458276979625225">
        <ele>190.07794189453125</ele>
        <time>2019-11-01T11:20:51.962Z</time>
      </trkpt>
      <trkpt lat="28.079448966309428" lon="-15.458240937441587">
        <ele>189.63845825195312</ele>
        <time>2019-11-01T11:20:53.753Z</time>
      </trkpt>
      <trkpt lat="28.079479979351163" lon="-15.458226939663291">
        <ele>189.4464874267578</ele>
        <time>2019-11-01T11:20:55.550Z</time>
      </trkpt>
      <trkpt lat="28.079511998221278" lon="-15.458204979076982">
        <ele>189.18521118164062</ele>
        <time>2019-11-01T11:20:57.353Z</time>
      </trkpt>
      <trkpt lat="28.079546950757504" lon="-15.458195926621556">
        <ele>189.0253143310547</ele>
        <time>2019-11-01T11:20:59.162Z</time>
      </trkpt>
      <trkpt lat="28.079700926318765" lon="-15.458173966035247">
        <ele>188.4713897705078</ele>
        <time>2019-11-01T11:21:00.997Z</time>
      </trkpt>
      <trkpt lat="28.079814920201898" lon="-15.45813792385161">
        <ele>187.89515686035156</ele>
        <time>2019-11-01T11:21:02.852Z</time>
      </trkpt>
      <trkpt lat="28.079974930733442" lon="-15.458084950223565">
        <ele>187.0662841796875</ele>
        <time>2019-11-01T11:21:04.734Z</time>
      </trkpt>
      <trkpt lat="28.080026982352138" lon="-15.458070952445269">
        <ele>186.804931640625</ele>
        <time>2019-11-01T11:21:06.625Z</time>
      </trkpt>
      <trkpt lat="28.080124966800213" lon="-15.45804899185896">
        <ele>186.20294189453125</ele>
        <time>2019-11-01T11:21:08.533Z</time>
      </trkpt>
      <trkpt lat="28.080281959846616" lon="-15.45796793885529">
        <ele>185.08309936523438</ele>
        <time>2019-11-01T11:21:10.470Z</time>
      </trkpt>
      <trkpt lat="28.08044297620654" lon="-15.457927957177162">
        <ele>184.26239013671875</ele>
        <time>2019-11-01T11:21:12.434Z</time>
      </trkpt>
      <trkpt lat="28.08050198480487" lon="-15.457936925813556">
        <ele>183.9899444580078</ele>
        <time>2019-11-01T11:21:14.408Z</time>
      </trkpt>
      <trkpt lat="28.080605920404196" lon="-15.457957964390516">
        <ele>183.51638793945312</ele>
        <time>2019-11-01T11:21:16.399Z</time>
      </trkpt>
      <trkpt lat="28.080626958981156" lon="-15.457957964390516">
        <ele>183.41542053222656</ele>
        <time>2019-11-01T11:21:18.394Z</time>
      </trkpt>
      <trkpt lat="28.08067892678082" lon="-15.457882946357131">
        <ele>183.0760040283203</ele>
        <time>2019-11-01T11:21:20.403Z</time>
      </trkpt>
      <trkpt lat="28.08070097118616" lon="-15.457844976335764">
        <ele>182.92465209960938</ele>
        <time>2019-11-01T11:21:22.419Z</time>
      </trkpt>
      <trkpt lat="28.080713963136077" lon="-15.457832990214229">
        <ele>182.84791564941406</ele>
        <time>2019-11-01T11:21:24.437Z</time>
      </trkpt>
      <trkpt lat="28.08072393760085" lon="-15.457826955243945">
        <ele>182.79281616210938</ele>
        <time>2019-11-01T11:21:26.457Z</time>
      </trkpt>
      <trkpt lat="28.080732990056276" lon="-15.457823937758803">
        <ele>182.74574279785156</ele>
        <time>2019-11-01T11:21:28.479Z</time>
      </trkpt>
      <trkpt lat="28.08071999810636" lon="-15.457820920273662">
        <ele>182.80447387695312</ele>
        <time>2019-11-01T11:21:30.503Z</time>
      </trkpt>
      <trkpt lat="28.080694936215878" lon="-15.457827961072326">
        <ele>182.93319702148438</ele>
        <time>2019-11-01T11:21:32.531Z</time>
      </trkpt>
      <trkpt lat="28.08068194426596" lon="-15.457848999649286">
        <ele>183.0207977294922</ele>
        <time>2019-11-01T11:21:34.563Z</time>
      </trkpt>
      <trkpt lat="28.08067398145795" lon="-15.45796299353242">
        <ele>183.19578552246094</ele>
        <time>2019-11-01T11:21:36.612Z</time>
      </trkpt>
      <trkpt lat="28.080752938985825" lon="-15.457984954118729">
        <ele>182.84320068359375</ele>
        <time>2019-11-01T11:21:38.675Z</time>
      </trkpt>
      <trkpt lat="28.080789986997843" lon="-15.457989983260632">
        <ele>182.6714324951172</ele>
        <time>2019-11-01T11:21:40.744Z</time>
      </trkpt>
      <trkpt lat="28.080993918702006" lon="-15.45803097076714">
        <ele>182.07644653320312</ele>
        <time>2019-11-01T11:21:42.847Z</time>
      </trkpt>
      <trkpt lat="28.081074971705675" lon="-15.45804899185896">
        <ele>181.99005126953125</ele>
        <time>2019-11-01T11:21:44.964Z</time>
      </trkpt>
      <trkpt lat="28.081435980275273" lon="-15.458066929131746">
        <ele>181.23138427734375</ele>
        <time>2019-11-01T11:21:47.141Z</time>
      </trkpt>
      <trkpt lat="28.081482918933034" lon="-15.458067934960127">
        <ele>181.12478637695312</ele>
        <time>2019-11-01T11:21:49.326Z</time>
      </trkpt>
      <trkpt lat="28.081702943891287" lon="-15.458061983808875">
        <ele>180.51358032226562</ele>
        <time>2019-11-01T11:21:51.547Z</time>
      </trkpt>
      <trkpt lat="28.08177695609629" lon="-15.458067934960127">
        <ele>179.95370483398438</ele>
        <time>2019-11-01T11:21:53.781Z</time>
      </trkpt>
      <trkpt lat="28.08185993693769" lon="-15.45807195827365">
        <ele>179.655029296875</ele>
        <time>2019-11-01T11:21:56.029Z</time>
      </trkpt>
      <trkpt lat="28.082143999636173" lon="-15.458060977980494">
        <ele>178.632568359375</ele>
        <time>2019-11-01T11:21:58.324Z</time>
      </trkpt>
      <trkpt lat="28.08224994689226" lon="-15.458036921918392">
        <ele>178.251220703125</ele>
        <time>2019-11-01T11:22:00.637Z</time>
      </trkpt>
      <trkpt lat="28.08229194022715" lon="-15.45802996493876">
        <ele>178.10008239746094</ele>
        <time>2019-11-01T11:22:02.957Z</time>
      </trkpt>
      <trkpt lat="28.082434935495257" lon="-15.458026947453618">
        <ele>177.5853729248047</ele>
        <time>2019-11-01T11:22:05.301Z</time>
      </trkpt>
      <trkpt lat="28.08265697211027" lon="-15.45809199102223">
        <ele>176.5960235595703</ele>
        <time>2019-11-01T11:22:07.683Z</time>
      </trkpt>
      <trkpt lat="28.082711957395077" lon="-15.458118980750442">
        <ele>176.2997589111328</ele>
        <time>2019-11-01T11:22:10.075Z</time>
      </trkpt>
      <trkpt lat="28.082816982641816" lon="-15.458174971863627">
        <ele>175.72854614257812</ele>
        <time>2019-11-01T11:22:12.486Z</time>
      </trkpt>
      <trkpt lat="28.082962995395064" lon="-15.458283936604857">
        <ele>174.89706420898438</ele>
        <time>2019-11-01T11:22:14.926Z</time>
      </trkpt>
      <trkpt lat="28.083001971244812" lon="-15.458334982395172">
        <ele>174.64877319335938</ele>
        <time>2019-11-01T11:22:17.376Z</time>
      </trkpt>
      <trkpt lat="28.083163993433118" lon="-15.45856892131269">
        <ele>173.21981811523438</ele>
        <time>2019-11-01T11:22:19.870Z</time>
      </trkpt>
      <trkpt lat="28.083177991211414" lon="-15.458606975153089">
        <ele>173.04452514648438</ele>
        <time>2019-11-01T11:22:22.370Z</time>
      </trkpt>
      <trkpt lat="28.08320799842477" lon="-15.458778971806169">
        <ele>172.45179748535156</ele>
        <time>2019-11-01T11:22:24.896Z</time>
      </trkpt>
      <trkpt lat="28.08321093209088" lon="-15.458806967362761">
        <ele>172.3670196533203</ele>
        <time>2019-11-01T11:22:27.426Z</time>
      </trkpt>
      <trkpt lat="28.08323096483946" lon="-15.458941999822855">
        <ele>174.69717407226562</ele>
        <time>2019-11-01T11:22:29.976Z</time>
      </trkpt>
      <trkpt lat="28.083236999809742" lon="-15.458964966237545">
        <ele>175.15695190429688</ele>
        <time>2019-11-01T11:22:32.530Z</time>
      </trkpt>
      <trkpt lat="28.083266923204064" lon="-15.45906295068562">
        <ele>176.57199096679688</ele>
        <time>2019-11-01T11:22:35.099Z</time>
      </trkpt>
      <trkpt lat="28.083338923752308" lon="-15.45929697342217">
        <ele>178.99110412597656</ele>
        <time>2019-11-01T11:22:37.704Z</time>
      </trkpt>
      <trkpt lat="28.08340698480606" lon="-15.459502916783094">
        <ele>181.0579376220703</ele>
        <time>2019-11-01T11:22:40.342Z</time>
      </trkpt>
      <trkpt lat="28.083431962877512" lon="-15.459543988108635">
        <ele>181.34288024902344</ele>
        <time>2019-11-01T11:22:42.987Z</time>
      </trkpt>
      <trkpt lat="28.083463981747627" lon="-15.45957894064486">
        <ele>182.2302703857422</ele>
        <time>2019-11-01T11:22:45.640Z</time>
      </trkpt>
      <trkpt lat="28.083546962589025" lon="-15.459639960899949">
        <ele>185.48699951171875</ele>
        <time>2019-11-01T11:22:48.309Z</time>
      </trkpt>
      <trkpt lat="28.08364192955196" lon="-15.459657981991768">
        <ele>188.51263427734375</ele>
        <time>2019-11-01T11:22:50.994Z</time>
      </trkpt>
      <trkpt lat="28.083796994760633" lon="-15.459565948694944">
        <ele>189.95555114746094</ele>
        <time>2019-11-01T11:22:53.708Z</time>
      </trkpt>
      <trkpt lat="28.083884920924902" lon="-15.459471987560391">
        <ele>189.57078552246094</ele>
        <time>2019-11-01T11:22:56.442Z</time>
      </trkpt>
      <trkpt lat="28.083954993635416" lon="-15.459353970363736">
        <ele>188.02207946777344</ele>
        <time>2019-11-01T11:22:59.197Z</time>
      </trkpt>
      <trkpt lat="28.08398298919201" lon="-15.459156995639205">
        <ele>183.089111328125</ele>
        <time>2019-11-01T11:23:01.982Z</time>
      </trkpt>
      <trkpt lat="28.083972930908203" lon="-15.459093963727355">
        <ele>181.35414123535156</ele>
        <time>2019-11-01T11:23:04.776Z</time>
      </trkpt>
      <trkpt lat="28.083959938958287" lon="-15.458968989551067">
        <ele>179.39892578125</ele>
        <time>2019-11-01T11:23:07.589Z</time>
      </trkpt>
      <trkpt lat="28.08396396227181" lon="-15.458905957639217">
        <ele>178.53968811035156</ele>
        <time>2019-11-01T11:23:10.411Z</time>
      </trkpt>
      <trkpt lat="28.083968991413713" lon="-15.458772936835885">
        <ele>177.3260955810547</ele>
        <time>2019-11-01T11:23:13.253Z</time>
      </trkpt>
      <trkpt lat="28.083977960050106" lon="-15.458487952128053">
        <ele>176.74984741210938</ele>
        <time>2019-11-01T11:23:16.137Z</time>
      </trkpt>
      <trkpt lat="28.08398491702974" lon="-15.458413939923048">
        <ele>176.6557159423828</ele>
        <time>2019-11-01T11:23:19.032Z</time>
      </trkpt>
      <trkpt lat="28.084003943949938" lon="-15.458261976018548">
        <ele>176.51934814453125</ele>
        <time>2019-11-01T11:23:21.949Z</time>
      </trkpt>
      <trkpt lat="28.084015930071473" lon="-15.45803097076714">
        <ele>177.11917114257812</ele>
        <time>2019-11-01T11:23:24.900Z</time>
      </trkpt>
      <trkpt lat="28.084015929095944" lon="-15.458030956551008">
        <ele>177.11920166015625</ele>
        <time>2019-11-01T11:23:27.851Z</time>
      </trkpt>
      <trkpt lat="28.08400494977832" lon="-15.457870960235596">
        <ele>176.9851531982422</ele>
        <time>2019-11-01T11:23:30.826Z</time>
      </trkpt>
      <trkpt lat="28.08393999002874" lon="-15.457415990531445">
        <ele>176.05319213867188</ele>
        <time>2019-11-01T11:23:33.869Z</time>
      </trkpt>
      <trkpt lat="28.08394292369485" lon="-15.457339966669679">
        <ele>176.07078552246094</ele>
        <time>2019-11-01T11:23:36.923Z</time>
      </trkpt>
      <trkpt lat="28.083929931744933" lon="-15.457016928121448">
        <ele>174.28302001953125</ele>
        <time>2019-11-01T11:23:40.025Z</time>
      </trkpt>
      <trkpt lat="28.083952981978655" lon="-15.45686999335885">
        <ele>172.6583709716797</ele>
        <time>2019-11-01T11:23:43.149Z</time>
      </trkpt>
      <trkpt lat="28.083976954221725" lon="-15.456754993647337">
        <ele>171.4224090576172</ele>
        <time>2019-11-01T11:23:46.290Z</time>
      </trkpt>
      <trkpt lat="28.084000926464796" lon="-15.45669598504901">
        <ele>170.85824584960938</ele>
        <time>2019-11-01T11:23:49.441Z</time>
      </trkpt>
      <trkpt lat="28.08409396559" lon="-15.45652499422431">
        <ele>169.36483764648438</ele>
        <time>2019-11-01T11:23:52.621Z</time>
      </trkpt>
      <trkpt lat="28.084168983623385" lon="-15.456393985077739">
        <ele>168.47406005859375</ele>
        <time>2019-11-01T11:23:55.824Z</time>
      </trkpt>
      <trkpt lat="28.08426395058632" lon="-15.456186952069402">
        <ele>166.33346557617188</ele>
        <time>2019-11-01T11:23:59.062Z</time>
      </trkpt>
      <trkpt lat="28.084355983883142" lon="-15.455919988453388">
        <ele>166.42152404785156</ele>
        <time>2019-11-01T11:24:02.342Z</time>
      </trkpt>
      <trkpt lat="28.084363946691155" lon="-15.4558589681983">
        <ele>165.97601318359375</ele>
        <time>2019-11-01T11:24:05.631Z</time>
      </trkpt>
      <trkpt lat="28.084366964176297" lon="-15.45579794794321">
        <ele>165.35250854492188</ele>
        <time>2019-11-01T11:24:08.929Z</time>
      </trkpt>
      <trkpt lat="28.084320947527885" lon="-15.455636931583285">
        <ele>161.76431274414062</ele>
        <time>2019-11-01T11:24:12.252Z</time>
      </trkpt>
      <trkpt lat="28.084254981949925" lon="-15.455547999590635">
        <ele>158.68882751464844</ele>
        <time>2019-11-01T11:24:15.592Z</time>
      </trkpt>
      <trkpt lat="28.084192955866456" lon="-15.455447919666767">
        <ele>158.01126098632812</ele>
        <time>2019-11-01T11:24:18.950Z</time>
      </trkpt>
      <trkpt lat="28.08413797058165" lon="-15.455338954925537">
        <ele>157.75100708007812</ele>
        <time>2019-11-01T11:24:22.327Z</time>
      </trkpt>
      <trkpt lat="28.084061946719885" lon="-15.455156983807683">
        <ele>157.2784423828125</ele>
        <time>2019-11-01T11:24:25.733Z</time>
      </trkpt>
      <trkpt lat="28.08389799669385" lon="-15.454946933314204">
        <ele>156.53857421875</ele>
        <time>2019-11-01T11:24:29.180Z</time>
      </trkpt>
      <trkpt lat="28.083561966195703" lon="-15.45542998239398">
        <ele>159.46083068847656</ele>
        <time>2019-11-01T11:24:32.718Z</time>
      </trkpt>
      <trkpt lat="28.083287961781025" lon="-15.455606924369931">
        <ele>162.1285400390625</ele>
        <time>2019-11-01T11:24:36.308Z</time>
      </trkpt>
      <trkpt lat="28.082993924617767" lon="-15.455676997080445">
        <ele>165.9086151123047</ele>
        <time>2019-11-01T11:24:39.948Z</time>
      </trkpt>
      <trkpt lat="28.082860987633467" lon="-15.455769952386618">
        <ele>167.83816528320312</ele>
        <time>2019-11-01T11:24:43.614Z</time>
      </trkpt>
      <trkpt lat="28.082293951883912" lon="-15.456110928207636">
        <ele>171.86170959472656</ele>
        <time>2019-11-01T11:24:47.387Z</time>
      </trkpt>
      <trkpt lat="28.081938978284597" lon="-15.456454921513796">
        <ele>173.13815307617188</ele>
        <time>2019-11-01T11:24:51.238Z</time>
      </trkpt>
      <trkpt lat="28.08157897554338" lon="-15.456690955907106">
        <ele>175.29380798339844</ele>
        <time>2019-11-01T11:24:55.158Z</time>
      </trkpt>
      <trkpt lat="28.081204975023866" lon="-15.45669598504901">
        <ele>178.26437377929688</ele>
        <time>2019-11-01T11:24:59.140Z</time>
      </trkpt>
      <trkpt lat="28.080300986766815" lon="-15.456427931785583">
        <ele>186.1656036376953</ele>
        <time>2019-11-01T11:25:03.278Z</time>
      </trkpt>
      <trkpt lat="28.079358944669366" lon="-15.456293988972902">
        <ele>187.33792114257812</ele>
        <time>2019-11-01T11:25:07.574Z</time>
      </trkpt>
      <trkpt lat="28.078970946371555" lon="-15.456464979797602">
        <ele>187.291748046875</ele>
        <time>2019-11-01T11:25:11.939Z</time>
      </trkpt>
      <trkpt lat="28.07850486280423" lon="-15.45668946907108">
        <ele>190.93685913085938</ele>
        <time>2019-11-01T11:25:16.388Z</time>
      </trkpt>
      <trkpt lat="28.07835771650353" lon="-15.45677555467796">
        <ele>191.46058654785156</ele>
        <time>2019-11-01T11:25:20.865Z</time>
      </trkpt>
      <trkpt lat="28.078152389846316" lon="-15.456937551498413">
        <ele>191.26622009277344</ele>
        <time>2019-11-01T11:25:25.383Z</time>
      </trkpt>
      <trkpt lat="28.078171322086202" lon="-15.456846356391907">
        <ele>191.37564086914062</ele>
        <time>2019-11-01T11:25:29.915Z</time>
      </trkpt>
      <trkpt lat="28.078052995532257" lon="-15.456846356391907">
        <ele>191.37564086914062</ele>
        <time>2019-11-01T11:25:34.467Z</time>
      </trkpt>
      <trkpt lat="28.078223385728645" lon="-15.456722974777222">
        <ele>191.52366638183594</ele>
        <time>2019-11-01T11:25:39.053Z</time>
      </trkpt>
      <trkpt lat="28.0784107044303" lon="-15.45655500047826">
        <ele>191.72520446777344</ele>
        <time>2019-11-01T11:25:43.678Z</time>
      </trkpt>
      <trkpt lat="28.07848395779729" lon="-15.456464979797602">
        <ele>191.38177490234375</ele>
        <time>2019-11-01T11:25:48.321Z</time>
      </trkpt>
      <trkpt lat="28.078521927818656" lon="-15.456298934295774">
        <ele>192.75399780273438</ele>
        <time>2019-11-01T11:25:52.990Z</time>
      </trkpt>
      <trkpt lat="28.078090930357575" lon="-15.456255935132504">
        <ele>203.43121337890625</ele>
        <time>2019-11-01T11:25:57.731Z</time>
      </trkpt>
      <trkpt lat="28.078222945332527" lon="-15.456143952906132">
        <ele>206.3334503173828</ele>
        <time>2019-11-01T11:26:02.499Z</time>
      </trkpt>
      <trkpt lat="28.07837499305606" lon="-15.455923927947879">
        <ele>214.48272705078125</ele>
        <time>2019-11-01T11:26:07.308Z</time>
      </trkpt>
      <trkpt lat="28.077858919277787" lon="-15.455890987068415">
        <ele>228.19354248046875</ele>
        <time>2019-11-01T11:26:12.203Z</time>
      </trkpt>
      <trkpt lat="28.07771198451519" lon="-15.455821920186281">
        <ele>235.44837951660156</ele>
        <time>2019-11-01T11:26:17.125Z</time>
      </trkpt>
      <trkpt lat="28.0770449526608" lon="-15.45598796568811">
        <ele>247.32638549804688</ele>
        <time>2019-11-01T11:26:22.160Z</time>
      </trkpt>
      <trkpt lat="28.077266989275813" lon="-15.455697951838374">
        <ele>256.0364074707031</ele>
        <time>2019-11-01T11:26:27.252Z</time>
      </trkpt>
      <trkpt lat="28.077162969857454" lon="-15.455692922696471">
        <ele>260.07012939453125</ele>
        <time>2019-11-01T11:26:32.361Z</time>
      </trkpt>
      <trkpt lat="28.07760796509683" lon="-15.455247927457094">
        <ele>263.5348815917969</ele>
        <time>2019-11-01T11:26:37.569Z</time>
      </trkpt>
      <trkpt lat="28.07755993679166" lon="-15.455179950222373">
        <ele>267.07421875</ele>
        <time>2019-11-01T11:26:42.790Z</time>
      </trkpt>
      <trkpt lat="28.077459940686822" lon="-15.455239964649081">
        <ele>268.80133056640625</ele>
        <time>2019-11-01T11:26:48.029Z</time>
      </trkpt>
      <trkpt lat="28.077339995652437" lon="-15.455199982970953">
        <ele>274.3658752441406</ele>
        <time>2019-11-01T11:26:53.289Z</time>
      </trkpt>
      <trkpt lat="28.077269922941923" lon="-15.455199982970953">
        <ele>276.8880615234375</ele>
        <time>2019-11-01T11:26:58.561Z</time>
      </trkpt>
      <trkpt lat="28.077179985120893" lon="-15.455259997397661">
        <ele>278.2531433105469</ele>
        <time>2019-11-01T11:27:03.850Z</time>
      </trkpt>
      <trkpt lat="28.077099937945604" lon="-15.45529997907579">
        <ele>279.88714599609375</ele>
        <time>2019-11-01T11:27:09.154Z</time>
      </trkpt>
      <trkpt lat="28.077079989016056" lon="-15.455289920791984">
        <ele>280.9189453125</ele>
        <time>2019-11-01T11:27:14.461Z</time>
      </trkpt>
      <trkpt lat="28.077039923518896" lon="-15.455229990184307">
        <ele>284.2305908203125</ele>
        <time>2019-11-01T11:27:19.779Z</time>
      </trkpt>
      <trkpt lat="28.077019974589348" lon="-15.455159917473793">
        <ele>285.4051208496094</ele>
        <time>2019-11-01T11:27:25.108Z</time>
      </trkpt>
      <trkpt lat="28.07697999291122" lon="-15.455139968544245">
        <ele>286.100341796875</ele>
        <time>2019-11-01T11:27:30.445Z</time>
      </trkpt>
      <trkpt lat="28.076929952949286" lon="-15.455149943009019">
        <ele>286.677001953125</ele>
        <time>2019-11-01T11:27:35.790Z</time>
      </trkpt>
      <trkpt lat="28.076869938522577" lon="-15.455209957435727">
        <ele>286.96502685546875</ele>
        <time>2019-11-01T11:27:41.148Z</time>
      </trkpt>
      <trkpt lat="28.076749993488193" lon="-15.455369967967272">
        <ele>287.4111022949219</ele>
        <time>2019-11-01T11:27:46.537Z</time>
      </trkpt>
      <trkpt lat="28.076619990170002" lon="-15.455599967390299">
        <ele>285.2255554199219</ele>
        <time>2019-11-01T11:27:51.966Z</time>
      </trkpt>
      <trkpt lat="28.07652996852994" lon="-15.455749919638038">
        <ele>280.6915283203125</ele>
        <time>2019-11-01T11:27:57.422Z</time>
      </trkpt>
      <trkpt lat="28.076409939676523" lon="-15.455849999561906">
        <ele>279.8242492675781</ele>
        <time>2019-11-01T11:28:02.903Z</time>
      </trkpt>
      <trkpt lat="28.07624992914498" lon="-15.455919988453388">
        <ele>281.291015625</ele>
        <time>2019-11-01T11:28:08.412Z</time>
      </trkpt>
      <trkpt lat="28.07609997689724" lon="-15.456069940701127">
        <ele>278.772216796875</ele>
        <time>2019-11-01T11:28:13.955Z</time>
      </trkpt>
      <trkpt lat="28.075859919190407" lon="-15.456229951232672">
        <ele>278.6409606933594</ele>
        <time>2019-11-01T11:28:19.544Z</time>
      </trkpt>
      <trkpt lat="28.07579697109759" lon="-15.456264987587929">
        <ele>279.082763671875</ele>
        <time>2019-11-01T11:28:25.145Z</time>
      </trkpt>
      <trkpt lat="28.075463958084583" lon="-15.456540919840336">
        <ele>272.3900146484375</ele>
        <time>2019-11-01T11:28:30.815Z</time>
      </trkpt>
      <trkpt lat="28.074914943426847" lon="-15.456701936200261">
        <ele>272.8526916503906</ele>
        <time>2019-11-01T11:28:36.579Z</time>
      </trkpt>
      <trkpt lat="28.07369395159185" lon="-15.456658937036991">
        <ele>275.5592956542969</ele>
        <time>2019-11-01T11:28:42.546Z</time>
      </trkpt>
      <trkpt lat="28.072973946109414" lon="-15.456937970593572">
        <ele>279.8148498535156</ele>
        <time>2019-11-01T11:28:48.639Z</time>
      </trkpt>
      <trkpt lat="28.072464858022606" lon="-15.457012713678454">
        <ele>292.3314208984375</ele>
        <time>2019-11-01T11:28:54.818Z</time>
      </trkpt>
      <trkpt lat="28.072462985292077" lon="-15.457012988626957">
        <ele>292.3851013183594</ele>
        <time>2019-11-01T11:29:00.997Z</time>
      </trkpt>
      <trkpt lat="28.071749936789274" lon="-15.457714973017573">
        <ele>283.7471618652344</ele>
        <time>2019-11-01T11:29:07.333Z</time>
      </trkpt>
      <trkpt lat="28.071430921554565" lon="-15.457945978268981">
        <ele>274.2973937988281</ele>
        <time>2019-11-01T11:29:13.732Z</time>
      </trkpt>
      <trkpt lat="28.071042923256755" lon="-15.457849921658635">
        <ele>281.1064453125</ele>
        <time>2019-11-01T11:29:20.198Z</time>
      </trkpt>
      <trkpt lat="28.070502961054444" lon="-15.457516992464662">
        <ele>285.259521484375</ele>
        <time>2019-11-01T11:29:26.766Z</time>
      </trkpt>
      <trkpt lat="28.070010943338275" lon="-15.45721692033112">
        <ele>300.2515869140625</ele>
        <time>2019-11-01T11:29:33.427Z</time>
      </trkpt>
      <trkpt lat="28.069490930065513" lon="-15.457183979451656">
        <ele>309.4380187988281</ele>
        <time>2019-11-01T11:29:40.174Z</time>
      </trkpt>
      <trkpt lat="28.068704959005117" lon="-15.457183979451656">
        <ele>321.28411865234375</ele>
        <time>2019-11-01T11:29:47.052Z</time>
      </trkpt>
      <trkpt lat="28.067994927987456" lon="-15.456057954579592">
        <ele>334.32672119140625</ele>
        <time>2019-11-01T11:29:54.134Z</time>
      </trkpt>
      <trkpt lat="28.067994927987456" lon="-15.456025935709476">
        <ele>334.48040771484375</ele>
        <time>2019-11-01T11:30:01.220Z</time>
      </trkpt>
      <trkpt lat="28.06609198451042" lon="-15.457312976941466">
        <ele>339.2259826660156</ele>
        <time>2019-11-01T11:30:08.675Z</time>
      </trkpt>
      <trkpt lat="28.06610992178321" lon="-15.457551945000887">
        <ele>338.87469482421875</ele>
        <time>2019-11-01T11:30:16.166Z</time>
      </trkpt>
      <trkpt lat="28.066161973401904" lon="-15.457590920850635">
        <ele>338.6405944824219</ele>
        <time>2019-11-01T11:30:23.667Z</time>
      </trkpt>
      <trkpt lat="28.06617295369506" lon="-15.45766199938953">
        <ele>338.5157775878906</ele>
        <time>2019-11-01T11:30:31.179Z</time>
      </trkpt>
      <trkpt lat="28.06625794619322" lon="-15.457873977720737">
        <ele>339.2206726074219</ele>
        <time>2019-11-01T11:30:38.725Z</time>
      </trkpt>
      <trkpt lat="28.06632994674146" lon="-15.45805293135345">
        <ele>339.6041564941406</ele>
        <time>2019-11-01T11:30:46.300Z</time>
      </trkpt>
      <trkpt lat="28.066402953118086" lon="-15.458174971863627">
        <ele>339.0472106933594</ele>
        <time>2019-11-01T11:30:53.897Z</time>
      </trkpt>
      <trkpt lat="28.066416950896382" lon="-15.458183940500021">
        <ele>339.0270080566406</ele>
        <time>2019-11-01T11:31:01.496Z</time>
      </trkpt>
      <trkpt lat="28.066504960879683" lon="-15.458216965198517">
        <ele>339.0400695800781</ele>
        <time>2019-11-01T11:31:09.111Z</time>
      </trkpt>
      <trkpt lat="28.06653899140656" lon="-15.45822199434042">
        <ele>339.091552734375</ele>
        <time>2019-11-01T11:31:16.732Z</time>
      </trkpt>
      <trkpt lat="28.066549971699715" lon="-15.458214953541756">
        <ele>339.16015625</ele>
        <time>2019-11-01T11:31:24.355Z</time>
      </trkpt>
      <trkpt lat="28.0665869358927" lon="-15.458222916349769">
        <ele>339.2010803222656</ele>
        <time>2019-11-01T11:31:31.984Z</time>
      </trkpt>
      <trkpt lat="28.066659942269325" lon="-15.458289971575141">
        <ele>338.9739990234375</ele>
        <time>2019-11-01T11:31:39.629Z</time>
      </trkpt>
      <trkpt lat="28.066677963361144" lon="-15.458295922726393">
        <ele>338.9815368652344</ele>
        <time>2019-11-01T11:31:47.277Z</time>
      </trkpt>
      <trkpt lat="28.0668649636209" lon="-15.458411928266287">
        <ele>336.998046875</ele>
        <time>2019-11-01T11:31:54.960Z</time>
      </trkpt>
      <trkpt lat="28.06690494529903" lon="-15.45845895074308">
        <ele>336.14031982421875</ele>
        <time>2019-11-01T11:32:02.653Z</time>
      </trkpt>
      <trkpt lat="28.06697392836213" lon="-15.458497926592827">
        <ele>334.913330078125</ele>
        <time>2019-11-01T11:32:10.359Z</time>
      </trkpt>
      <trkpt lat="28.06703796610236" lon="-15.458504967391491">
        <ele>333.9490966796875</ele>
        <time>2019-11-01T11:32:18.075Z</time>
      </trkpt>
      <trkpt lat="28.06705892086029" lon="-15.45850295573473">
        <ele>333.6594543457031</ele>
        <time>2019-11-01T11:32:25.795Z</time>
      </trkpt>
      <trkpt lat="28.067094963043928" lon="-15.458505973219872">
        <ele>332.79595947265625</ele>
        <time>2019-11-01T11:32:33.521Z</time>
      </trkpt>
      <trkpt lat="28.067106949165463" lon="-15.458497926592827">
        <ele>332.5723876953125</ele>
        <time>2019-11-01T11:32:41.249Z</time>
      </trkpt>
      <trkpt lat="28.06714592501521" lon="-15.45848099514842">
        <ele>331.557373046875</ele>
        <time>2019-11-01T11:32:48.984Z</time>
      </trkpt>
      <trkpt lat="28.06718297302723" lon="-15.45847898349166">
        <ele>330.15325927734375</ele>
        <time>2019-11-01T11:32:56.725Z</time>
      </trkpt>
      <trkpt lat="28.067196970805526" lon="-15.458477977663279">
        <ele>329.63043212890625</ele>
        <time>2019-11-01T11:33:04.469Z</time>
      </trkpt>
      <trkpt lat="28.067220943048596" lon="-15.458473954349756">
        <ele>328.8067932128906</ele>
        <time>2019-11-01T11:33:12.217Z</time>
      </trkpt>
      <trkpt lat="28.067235946655273" lon="-15.458490969613194">
        <ele>327.68194580078125</ele>
        <time>2019-11-01T11:33:19.968Z</time>
      </trkpt>
      <trkpt lat="28.067238964140415" lon="-15.45852491632104">
        <ele>326.5035400390625</ele>
        <time>2019-11-01T11:33:27.724Z</time>
      </trkpt>
      <trkpt lat="28.067237958312035" lon="-15.458530951291323">
        <ele>326.3551025390625</ele>
        <time>2019-11-01T11:33:35.481Z</time>
      </trkpt>
      <trkpt lat="28.06725095026195" lon="-15.458559952676296">
        <ele>324.9360046386719</ele>
        <time>2019-11-01T11:33:43.243Z</time>
      </trkpt>
      <trkpt lat="28.06729394942522" lon="-15.45856892131269">
        <ele>322.9537353515625</ele>
        <time>2019-11-01T11:33:51.012Z</time>
      </trkpt>
      <trkpt lat="28.067307947203517" lon="-15.458582919090986">
        <ele>321.9628601074219</ele>
        <time>2019-11-01T11:33:58.784Z</time>
      </trkpt>
      <trkpt lat="28.067321944981813" lon="-15.458604963496327">
        <ele>320.7209777832031</ele>
        <time>2019-11-01T11:34:06.560Z</time>
      </trkpt>
      <trkpt lat="28.067325968295336" lon="-15.458613932132721">
        <ele>320.2818908691406</ele>
        <time>2019-11-01T11:34:14.338Z</time>
      </trkpt>
      <trkpt lat="28.067324962466955" lon="-15.458619967103004">
        <ele>320.1334533691406</ele>
        <time>2019-11-01T11:34:22.117Z</time>
      </trkpt>
      <trkpt lat="28.067306941375136" lon="-15.4586529918015">
        <ele>319.8167724609375</ele>
        <time>2019-11-01T11:34:29.901Z</time>
      </trkpt>
      <trkpt lat="28.0672949552536" lon="-15.45869498513639">
        <ele>318.98138427734375</ele>
        <time>2019-11-01T11:34:37.692Z</time>
      </trkpt>
      <trkpt lat="28.0672949552536" lon="-15.458727926015854">
        <ele>317.95379638671875</ele>
        <time>2019-11-01T11:34:45.488Z</time>
      </trkpt>
      <trkpt lat="28.06729193776846" lon="-15.458745947107673">
        <ele>317.5111083984375</ele>
        <time>2019-11-01T11:34:53.286Z</time>
      </trkpt>
      <trkpt lat="28.067276934161782" lon="-15.458811996504664">
        <ele>316.04473876953125</ele>
        <time>2019-11-01T11:35:01.094Z</time>
      </trkpt>
      <trkpt lat="28.067277939990163" lon="-15.458817947655916">
        <ele>315.81927490234375</ele>
        <time>2019-11-01T11:35:08.903Z</time>
      </trkpt>
      <trkpt lat="28.067297972738743" lon="-15.458837980404496">
        <ele>314.2063903808594</ele>
        <time>2019-11-01T11:35:16.717Z</time>
      </trkpt>
      <trkpt lat="28.067297972738743" lon="-15.458843931555748">
        <ele>313.9207763671875</ele>
        <time>2019-11-01T11:35:24.532Z</time>
      </trkpt>
      <trkpt lat="28.067323956638575" lon="-15.458844937384129">
        <ele>312.8437194824219</ele>
        <time>2019-11-01T11:35:32.351Z</time>
      </trkpt>
      <trkpt lat="28.067350946366787" lon="-15.458825994282961">
        <ele>312.6777038574219</ele>
        <time>2019-11-01T11:35:40.175Z</time>
      </trkpt>
      <trkpt lat="28.06735597550869" lon="-15.458821970969439">
        <ele>312.6040954589844</ele>
        <time>2019-11-01T11:35:48.000Z</time>
      </trkpt>
      <trkpt lat="28.067377936095" lon="-15.458798920735717">
        <ele>312.4536437988281</ele>
        <time>2019-11-01T11:35:55.830Z</time>
      </trkpt>
      <trkpt lat="28.067412972450256" lon="-15.458764974027872">
        <ele>312.1253967285156</ele>
        <time>2019-11-01T11:36:03.668Z</time>
      </trkpt>
      <trkpt lat="28.067428981885314" lon="-15.458756927400827">
        <ele>311.7425231933594</ele>
        <time>2019-11-01T11:36:11.509Z</time>
      </trkpt>
      <trkpt lat="28.06744197383523" lon="-15.458749970421195">
        <ele>311.4451599121094</ele>
        <time>2019-11-01T11:36:19.352Z</time>
      </trkpt>
      <trkpt lat="28.067477932199836" lon="-15.458722980692983">
        <ele>310.8634033203125</ele>
        <time>2019-11-01T11:36:27.202Z</time>
      </trkpt>
      <trkpt lat="28.067481955513358" lon="-15.458719963207841">
        <ele>310.7982177734375</ele>
        <time>2019-11-01T11:36:35.053Z</time>
      </trkpt>
      <trkpt lat="28.067498970776796" lon="-15.458719963207841">
        <ele>310.1245422363281</ele>
        <time>2019-11-01T11:36:42.907Z</time>
      </trkpt>
      <trkpt lat="28.067496959120035" lon="-15.458756927400827">
        <ele>309.05108642578125</ele>
        <time>2019-11-01T11:36:50.767Z</time>
      </trkpt>
      <trkpt lat="28.067494947463274" lon="-15.458782995119691">
        <ele>308.31756591796875</ele>
        <time>2019-11-01T11:36:58.630Z</time>
      </trkpt>
      <trkpt lat="28.067500982433558" lon="-15.45882297679782">
        <ele>306.8313903808594</ele>
        <time>2019-11-01T11:37:06.499Z</time>
      </trkpt>
      <trkpt lat="28.06748296134174" lon="-15.458853989839554">
        <ele>306.1137390136719</ele>
        <time>2019-11-01T11:37:14.374Z</time>
      </trkpt>
      <trkpt lat="28.067454965785146" lon="-15.458906963467598">
        <ele>304.67987060546875</ele>
        <time>2019-11-01T11:37:22.258Z</time>
      </trkpt>
      <trkpt lat="28.06744499132037" lon="-15.45893294736743">
        <ele>303.8277587890625</ele>
        <time>2019-11-01T11:37:30.146Z</time>
      </trkpt>
      <trkpt lat="28.067432921379805" lon="-15.458971923217177">
        <ele>302.43511962890625</ele>
        <time>2019-11-01T11:37:38.040Z</time>
      </trkpt>
      <trkpt lat="28.06742495857179" lon="-15.458990950137377">
        <ele>301.8372802734375</ele>
        <time>2019-11-01T11:37:45.937Z</time>
      </trkpt>
      <trkpt lat="28.067406937479973" lon="-15.459049958735704">
        <ele>299.7188415527344</ele>
        <time>2019-11-01T11:37:53.844Z</time>
      </trkpt>
      <trkpt lat="28.06739897467196" lon="-15.459070997312665">
        <ele>299.0244445800781</ele>
        <time>2019-11-01T11:38:01.754Z</time>
      </trkpt>
      <trkpt lat="28.06739796884358" lon="-15.459078960120678">
        <ele>298.6820983886719</ele>
        <time>2019-11-01T11:38:09.665Z</time>
      </trkpt>
      <trkpt lat="28.06739897467196" lon="-15.459093963727355">
        <ele>297.9222412109375</ele>
        <time>2019-11-01T11:38:17.578Z</time>
      </trkpt>
      <trkpt lat="28.067386988550425" lon="-15.45912598259747">
        <ele>296.8601379394531</ele>
        <time>2019-11-01T11:38:25.496Z</time>
      </trkpt>
      <trkpt lat="28.06737894192338" lon="-15.459165964275599">
        <ele>295.25994873046875</ele>
        <time>2019-11-01T11:38:33.420Z</time>
      </trkpt>
      <trkpt lat="28.067367961630225" lon="-15.45919295400381">
        <ele>294.3993835449219</ele>
        <time>2019-11-01T11:38:41.349Z</time>
      </trkpt>
      <trkpt lat="28.06736192665994" lon="-15.459223967045546">
        <ele>293.14996337890625</ele>
        <time>2019-11-01T11:38:49.283Z</time>
      </trkpt>
      <trkpt lat="28.06735698133707" lon="-15.459243999794126">
        <ele>292.3843688964844</ele>
        <time>2019-11-01T11:38:57.220Z</time>
      </trkpt>
      <trkpt lat="28.06733896024525" lon="-15.45927694067359">
        <ele>291.5169677734375</ele>
        <time>2019-11-01T11:39:05.162Z</time>
      </trkpt>
      <trkpt lat="28.067329991608858" lon="-15.45929898507893">
        <ele>290.8141174316406</ele>
        <time>2019-11-01T11:39:13.108Z</time>
      </trkpt>
      <trkpt lat="28.067319933325052" lon="-15.459330920130014">
        <ele>289.6797180175781</ele>
        <time>2019-11-01T11:39:21.059Z</time>
      </trkpt>
      <trkpt lat="28.067325968295336" lon="-15.459349947050214">
        <ele>288.52764892578125</ele>
        <time>2019-11-01T11:39:29.013Z</time>
      </trkpt>
      <trkpt lat="28.06733795441687" lon="-15.459358999505639">
        <ele>287.6186218261719</ele>
        <time>2019-11-01T11:39:36.969Z</time>
      </trkpt>
      <trkpt lat="28.067364944145083" lon="-15.459356987848878">
        <ele>286.64654541015625</ele>
        <time>2019-11-01T11:39:44.930Z</time>
      </trkpt>
      <trkpt lat="28.067372990772128" lon="-15.459354976192117">
        <ele>286.42449951171875</ele>
        <time>2019-11-01T11:39:52.892Z</time>
      </trkpt>
      <trkpt lat="28.0674019921571" lon="-15.459326980635524">
        <ele>286.61981201171875</ele>
        <time>2019-11-01T11:40:00.860Z</time>
      </trkpt>
      <trkpt lat="28.067449936643243" lon="-15.459287920966744">
        <ele>286.5960693359375</ele>
        <time>2019-11-01T11:40:08.838Z</time>
      </trkpt>
      <trkpt lat="28.0674849729985" lon="-15.459261937066913">
        <ele>286.45587158203125</ele>
        <time>2019-11-01T11:40:16.823Z</time>
      </trkpt>
      <trkpt lat="28.067516991868615" lon="-15.459270989522338">
        <ele>284.7536926269531</ele>
        <time>2019-11-01T11:40:24.814Z</time>
      </trkpt>
      <trkpt lat="28.067534929141402" lon="-15.459315916523337">
        <ele>281.8873596191406</ele>
        <time>2019-11-01T11:40:32.812Z</time>
      </trkpt>
      <trkpt lat="28.06752998381853" lon="-15.4593419842422">
        <ele>280.8321228027344</ele>
        <time>2019-11-01T11:40:40.814Z</time>
      </trkpt>
      <trkpt lat="28.067511962726712" lon="-15.459386995062232">
        <ele>279.385498046875</ele>
        <time>2019-11-01T11:40:48.823Z</time>
      </trkpt>
      <trkpt lat="28.06748296134174" lon="-15.459417924284935">
        <ele>279.0494079589844</ele>
        <time>2019-11-01T11:40:56.839Z</time>
      </trkpt>
      <trkpt lat="28.067480949684978" lon="-15.459419935941696">
        <ele>279.0325012207031</ele>
        <time>2019-11-01T11:41:04.855Z</time>
      </trkpt>
      <trkpt lat="28.06746695190668" lon="-15.459440974518657">
        <ele>278.5770263671875</ele>
        <time>2019-11-01T11:41:12.875Z</time>
      </trkpt>
      <trkpt lat="28.067452954128385" lon="-15.45946897007525">
        <ele>277.7876892089844</ele>
        <time>2019-11-01T11:41:20.900Z</time>
      </trkpt>
      <trkpt lat="28.067450942471623" lon="-15.459482967853546">
        <ele>277.195556640625</ele>
        <time>2019-11-01T11:41:28.927Z</time>
      </trkpt>
      <trkpt lat="28.06746393442154" lon="-15.459503922611475">
        <ele>275.6755065917969</ele>
        <time>2019-11-01T11:41:36.958Z</time>
      </trkpt>
      <trkpt lat="28.067470975220203" lon="-15.459507945924997">
        <ele>275.2036437988281</ele>
        <time>2019-11-01T11:41:44.990Z</time>
      </trkpt>
      <trkpt lat="28.067517997696996" lon="-15.459504928439856">
        <ele>273.4866943359375</ele>
        <time>2019-11-01T11:41:53.030Z</time>
      </trkpt>
      <trkpt lat="28.067574994638562" lon="-15.459457989782095">
        <ele>273.482666015625</ele>
        <time>2019-11-01T11:42:01.082Z</time>
      </trkpt>
      <trkpt lat="28.06758999824524" lon="-15.459444997832179">
        <ele>273.5121154785156</ele>
        <time>2019-11-01T11:42:09.137Z</time>
      </trkpt>
      <trkpt lat="28.067624950781465" lon="-15.459415996447206">
        <ele>273.0539855957031</ele>
        <time>2019-11-01T11:42:17.199Z</time>
      </trkpt>
      <trkpt lat="28.06765495799482" lon="-15.459388922899961">
        <ele>272.6971740722656</ele>
        <time>2019-11-01T11:42:25.267Z</time>
      </trkpt>
      <trkpt lat="28.067670967429876" lon="-15.459378948435187">
        <ele>272.29229736328125</ele>
        <time>2019-11-01T11:42:33.338Z</time>
      </trkpt>
      <trkpt lat="28.067706925794482" lon="-15.459342990070581">
        <ele>272.0334167480469</ele>
        <time>2019-11-01T11:42:41.417Z</time>
      </trkpt>
      <trkpt lat="28.067728970199823" lon="-15.459300996735692">
        <ele>272.8321228027344</ele>
        <time>2019-11-01T11:42:49.504Z</time>
      </trkpt>
      <trkpt lat="28.067733999341726" lon="-15.459291944280267">
        <ele>272.989013671875</ele>
        <time>2019-11-01T11:42:57.592Z</time>
      </trkpt>
      <trkpt lat="28.067757971584797" lon="-15.459249950945377">
        <ele>273.6813049316406</ele>
        <time>2019-11-01T11:43:05.688Z</time>
      </trkpt>
      <trkpt lat="28.06778496131301" lon="-15.459226984530687">
        <ele>273.2939147949219</ele>
        <time>2019-11-01T11:43:13.789Z</time>
      </trkpt>
      <trkpt lat="28.067795941606164" lon="-15.459220949560404">
        <ele>272.9775390625</ele>
        <time>2019-11-01T11:43:21.892Z</time>
      </trkpt>
      <trkpt lat="28.06781195104122" lon="-15.459245927631855">
        <ele>270.8952331542969</ele>
        <time>2019-11-01T11:43:30.000Z</time>
      </trkpt>
      <trkpt lat="28.06781094521284" lon="-15.459252968430519">
        <ele>270.6128234863281</ele>
        <time>2019-11-01T11:43:38.109Z</time>
      </trkpt>
      <trkpt lat="28.067816980183125" lon="-15.459282975643873">
        <ele>268.83966064453125</ele>
        <time>2019-11-01T11:43:46.222Z</time>
      </trkpt>
      <trkpt lat="28.06784899905324" lon="-15.459289932623506">
        <ele>266.7386169433594</ele>
        <time>2019-11-01T11:43:54.341Z</time>
      </trkpt>
      <trkpt lat="28.067875988781452" lon="-15.459280963987112">
        <ele>265.6794738769531</ele>
        <time>2019-11-01T11:44:02.464Z</time>
      </trkpt>
      <trkpt lat="28.06789099238813" lon="-15.459270989522338">
        <ele>265.3301086425781</ele>
        <time>2019-11-01T11:44:10.590Z</time>
      </trkpt>
      <trkpt lat="28.067918987944722" lon="-15.459214998409152">
        <ele>266.47210693359375</ele>
        <time>2019-11-01T11:44:18.726Z</time>
      </trkpt>
      <trkpt lat="28.06793499737978" lon="-15.459187924861908">
        <ele>266.8878479003906</ele>
        <time>2019-11-01T11:44:26.867Z</time>
      </trkpt>
      <trkpt lat="28.0679839476943" lon="-15.45912598259747">
        <ele>267.15899658203125</ele>
        <time>2019-11-01T11:44:35.020Z</time>
      </trkpt>
      <trkpt lat="28.067996939644217" lon="-15.459112990647554">
        <ele>267.0654602050781</ele>
        <time>2019-11-01T11:44:43.176Z</time>
      </trkpt>
      <trkpt lat="28.068011943250895" lon="-15.459100920706987">
        <ele>266.816650390625</ele>
        <time>2019-11-01T11:44:51.335Z</time>
      </trkpt>
      <trkpt lat="28.068051924929023" lon="-15.459074936807156">
        <ele>265.8570556640625</ele>
        <time>2019-11-01T11:44:59.501Z</time>
      </trkpt>
      <trkpt lat="28.068080926313996" lon="-15.459044929593801">
        <ele>265.6965637207031</ele>
        <time>2019-11-01T11:45:07.674Z</time>
      </trkpt>
      <trkpt lat="28.06808796711266" lon="-15.45903797261417">
        <ele>265.641845703125</ele>
        <time>2019-11-01T11:45:15.849Z</time>
      </trkpt>
      <trkpt lat="28.068125937134027" lon="-15.459007965400815">
        <ele>264.9863586425781</ele>
        <time>2019-11-01T11:45:24.031Z</time>
      </trkpt>
      <trkpt lat="28.068166924640536" lon="-15.45897695235908">
        <ele>264.2126159667969</ele>
        <time>2019-11-01T11:45:32.221Z</time>
      </trkpt>
      <trkpt lat="28.06817295961082" lon="-15.458971923217177">
        <ele>264.1208801269531</ele>
        <time>2019-11-01T11:45:40.413Z</time>
      </trkpt>
      <trkpt lat="28.0681929923594" lon="-15.458948956802487">
        <ele>264.1174621582031</ele>
        <time>2019-11-01T11:45:48.609Z</time>
      </trkpt>
      <trkpt lat="28.068210929632187" lon="-15.458946945145726">
        <ele>263.2240295410156</ele>
        <time>2019-11-01T11:45:56.808Z</time>
      </trkpt>
      <trkpt lat="28.068221993744373" lon="-15.45895398594439">
        <ele>262.2755126953125</ele>
        <time>2019-11-01T11:46:05.010Z</time>
      </trkpt>
      <trkpt lat="28.068227944895625" lon="-15.458959937095642">
        <ele>261.66143798828125</ele>
        <time>2019-11-01T11:46:13.213Z</time>
      </trkpt>
      <trkpt lat="28.068224927410483" lon="-15.458983993157744">
        <ele>260.6734924316406</ele>
        <time>2019-11-01T11:46:21.419Z</time>
      </trkpt>
      <trkpt lat="28.068207995966077" lon="-15.459011988714337">
        <ele>260.2643737792969</ele>
        <time>2019-11-01T11:46:29.630Z</time>
      </trkpt>
      <trkpt lat="28.06819198653102" lon="-15.459041995927691">
        <ele>259.7078552246094</ele>
        <time>2019-11-01T11:46:37.847Z</time>
      </trkpt>
      <trkpt lat="28.068177988752723" lon="-15.45908398926258">
        <ele>258.7105407714844</ele>
        <time>2019-11-01T11:46:46.070Z</time>
      </trkpt>
      <trkpt lat="28.068162985146046" lon="-15.459131933748722">
        <ele>258.3838195800781</ele>
        <time>2019-11-01T11:46:54.301Z</time>
      </trkpt>
      <trkpt lat="28.06815594434738" lon="-15.459143919870257">
        <ele>258.3692321777344</ele>
        <time>2019-11-01T11:47:02.534Z</time>
      </trkpt>
      <trkpt lat="28.068139934912324" lon="-15.459216926246881">
        <ele>257.73223876953125</ele>
        <time>2019-11-01T11:47:10.778Z</time>
      </trkpt>
      <trkpt lat="28.06811193935573" lon="-15.459287920966744">
        <ele>257.36627197265625</ele>
        <time>2019-11-01T11:47:19.033Z</time>
      </trkpt>
      <trkpt lat="28.06810699403286" lon="-15.45929898507893">
        <ele>257.3211364746094</ele>
        <time>2019-11-01T11:47:27.290Z</time>
      </trkpt>
      <trkpt lat="28.068093918263912" lon="-15.459375930950046">
        <ele>256.57232666015625</ele>
        <time>2019-11-01T11:47:35.559Z</time>
      </trkpt>
      <trkpt lat="28.068073969334364" lon="-15.459434939548373">
        <ele>256.2004089355469</ele>
        <time>2019-11-01T11:47:43.837Z</time>
      </trkpt>
      <trkpt lat="28.068060977384448" lon="-15.459457989782095">
        <ele>256.16119384765625</ele>
        <time>2019-11-01T11:47:52.119Z</time>
      </trkpt>
      <trkpt lat="28.068051924929023" lon="-15.459478944540024">
        <ele>256.06927490234375</ele>
        <time>2019-11-01T11:48:00.405Z</time>
      </trkpt>
      <trkpt lat="28.06802493520081" lon="-15.459525967016816">
        <ele>255.9991912841797</ele>
        <time>2019-11-01T11:48:08.699Z</time>
      </trkpt>
      <trkpt lat="28.06800196878612" lon="-15.459572989493608">
        <ele>255.84703063964844</ele>
        <time>2019-11-01T11:48:17.001Z</time>
      </trkpt>
      <trkpt lat="28.067986965179443" lon="-15.459602996706963">
        <ele>255.75701904296875</ele>
        <time>2019-11-01T11:48:25.308Z</time>
      </trkpt>
      <trkpt lat="28.06798193603754" lon="-15.45962294563651">
        <ele>255.5963134765625</ele>
        <time>2019-11-01T11:48:33.618Z</time>
      </trkpt>
      <trkpt lat="28.06796098127961" lon="-15.459680948406458">
        <ele>255.23291015625</ele>
        <time>2019-11-01T11:48:41.937Z</time>
      </trkpt>
      <trkpt lat="28.06793692521751" lon="-15.459740962833166">
        <ele>254.85951232910156</ele>
        <time>2019-11-01T11:48:50.266Z</time>
      </trkpt>
      <trkpt lat="28.067927956581116" lon="-15.459762923419476">
        <ele>254.72625732421875</ele>
        <time>2019-11-01T11:48:58.598Z</time>
      </trkpt>
      <trkpt lat="28.067922927439213" lon="-15.459796953946352">
        <ele>254.3388671875</ele>
        <time>2019-11-01T11:49:06.935Z</time>
      </trkpt>
      <trkpt lat="28.067911947146058" lon="-15.459829978644848">
        <ele>254.0873565673828</ele>
        <time>2019-11-01T11:49:15.278Z</time>
      </trkpt>
      <trkpt lat="28.067836929112673" lon="-15.45991899445653">
        <ele>254.3358612060547</ele>
        <time>2019-11-01T11:49:23.639Z</time>
      </trkpt>
      <trkpt lat="28.067747997120023" lon="-15.46007196418941">
        <ele>253.94737243652344</ele>
        <time>2019-11-01T11:49:32.027Z</time>
      </trkpt>
      <trkpt lat="28.067726958543062" lon="-15.460107922554016">
        <ele>253.8587646484375</ele>
        <time>2019-11-01T11:49:40.421Z</time>
      </trkpt>
      <trkpt lat="28.06771899573505" lon="-15.46013499610126">
        <ele>253.6313934326172</ele>
        <time>2019-11-01T11:49:48.819Z</time>
      </trkpt>
      <trkpt lat="28.06769996881485" lon="-15.460182940587401">
        <ele>253.32919311523438</ele>
        <time>2019-11-01T11:49:57.225Z</time>
      </trkpt>
      <trkpt lat="28.06768094189465" lon="-15.460227951407433">
        <ele>253.06922912597656</ele>
        <time>2019-11-01T11:50:05.638Z</time>
      </trkpt>
      <trkpt lat="28.067678852847916" lon="-15.460233966855412">
        <ele>253.0252227783203</ele>
        <time>2019-11-01T11:50:14.052Z</time>
      </trkpt>
      <trkpt lat="28.067601880142444" lon="-15.460365414619446">
        <ele>252.7026824951172</ele>
        <time>2019-11-01T11:50:22.490Z</time>
      </trkpt>
      <trkpt lat="28.067816419110216" lon="-15.460551589200577">
        <ele>249.95172119140625</ele>
        <time>2019-11-01T11:50:30.973Z</time>
      </trkpt>
      <trkpt lat="28.06791295297444" lon="-15.460594994947314">
        <ele>249.5809326171875</ele>
        <time>2019-11-01T11:50:39.473Z</time>
      </trkpt>
      <trkpt lat="28.06802392937243" lon="-15.460684932768345">
        <ele>249.34681701660156</ele>
        <time>2019-11-01T11:50:47.996Z</time>
      </trkpt>
      <trkpt lat="28.068081932142377" lon="-15.460768919438124">
        <ele>249.40191650390625</ele>
        <time>2019-11-01T11:50:56.534Z</time>
      </trkpt>
      <trkpt lat="28.06815393269062" lon="-15.460836980491877">
        <ele>248.88241577148438</ele>
        <time>2019-11-01T11:51:05.088Z</time>
      </trkpt>
      <trkpt lat="28.068208917975426" lon="-15.46099598519504">
        <ele>248.0319366455078</ele>
        <time>2019-11-01T11:51:13.667Z</time>
      </trkpt>
      <trkpt lat="28.068253928795457" lon="-15.46110394410789">
        <ele>247.36236572265625</ele>
        <time>2019-11-01T11:51:22.264Z</time>
      </trkpt>
      <trkpt lat="28.068318972364068" lon="-15.461279964074492">
        <ele>246.37078857421875</ele>
        <time>2019-11-01T11:51:30.889Z</time>
      </trkpt>
      <trkpt lat="28.06836498901248" lon="-15.461321957409382">
        <ele>245.76829528808594</ele>
        <time>2019-11-01T11:51:39.524Z</time>
      </trkpt>
      <trkpt lat="28.068420980125666" lon="-15.461432933807373">
        <ele>248.87535095214844</ele>
        <time>2019-11-01T11:51:48.177Z</time>
      </trkpt>
      <trkpt lat="28.068434977903962" lon="-15.461502922698855">
        <ele>251.76974487304688</ele>
        <time>2019-11-01T11:51:56.841Z</time>
      </trkpt>
      <trkpt lat="28.06787196546793" lon="-15.462107928469777">
        <ele>260.29925537109375</ele>
        <time>2019-11-01T11:52:05.634Z</time>
      </trkpt>
      <trkpt lat="28.06787196546793" lon="-15.462108934298158">
        <ele>260.3378601074219</ele>
        <time>2019-11-01T11:52:14.427Z</time>
      </trkpt>
      <trkpt lat="28.067861991003156" lon="-15.462226951494813">
        <ele>264.6056823730469</ele>
        <time>2019-11-01T11:52:23.238Z</time>
      </trkpt>
      <trkpt lat="28.067539506393132" lon="-15.462523617127545">
        <ele>267.1502685546875</ele>
        <time>2019-11-01T11:52:32.118Z</time>
      </trkpt>
      <trkpt lat="28.067436944693327" lon="-15.462617967277765">
        <ele>267.45025634765625</ele>
        <time>2019-11-01T11:52:41.020Z</time>
      </trkpt>
      <trkpt lat="28.067397422273007" lon="-15.462653259993658">
        <ele>267.52496337890625</ele>
        <time>2019-11-01T11:52:49.931Z</time>
      </trkpt>
      <trkpt lat="28.067270532864537" lon="-15.462763309478762">
        <ele>267.6396179199219</ele>
        <time>2019-11-01T11:52:58.868Z</time>
      </trkpt>
      <trkpt lat="28.067237398080565" lon="-15.462757945060732">
        <ele>266.36029052734375</ele>
        <time>2019-11-01T10:58:53.000Z</time>
      </trkpt>
      <trkpt lat="28.06714215715363" lon="-15.46278254534991">
        <ele>264.219482421875</ele>
        <time>2019-11-01T10:58:53.016Z</time>
      </trkpt>
      <trkpt lat="28.067064955830574" lon="-15.462807985022664">
        <ele>262.6953125</ele>
        <time>2019-11-01T10:58:53.046Z</time>
      </trkpt>
      <trkpt lat="28.067003935575485" lon="-15.46284293755889">
        <ele>262.0605163574219</ele>
        <time>2019-11-01T10:58:53.087Z</time>
      </trkpt>
      <trkpt lat="28.06694995611906" lon="-15.462902951985598">
        <ele>262.6160583496094</ele>
        <time>2019-11-01T10:58:53.141Z</time>
      </trkpt>
      <trkpt lat="28.06690896861255" lon="-15.46297294087708">
        <ele>263.97540283203125</ele>
        <time>2019-11-01T10:58:53.207Z</time>
      </trkpt>
      <trkpt lat="28.066866975277662" lon="-15.463047958910465">
        <ele>265.9505920410156</ele>
        <time>2019-11-01T10:58:53.286Z</time>
      </trkpt>
      <trkpt lat="28.066815929487348" lon="-15.463116941973567">
        <ele>267.52484130859375</ele>
        <time>2019-11-01T10:58:53.378Z</time>
      </trkpt>
      <trkpt lat="28.06675599887967" lon="-15.463182991370559">
        <ele>268.7076110839844</ele>
        <time>2019-11-01T10:58:53.484Z</time>
      </trkpt>
      <trkpt lat="28.066687937825918" lon="-15.463238982483745">
        <ele>269.5310363769531</ele>
        <time>2019-11-01T10:58:53.604Z</time>
      </trkpt>
      <trkpt lat="28.066615937277675" lon="-15.463279969990253">
        <ele>269.5484313964844</ele>
        <time>2019-11-01T10:58:53.738Z</time>
      </trkpt>
      <trkpt lat="28.0665369797498" lon="-15.463301930576563">
        <ele>268.49188232421875</ele>
        <time>2019-11-01T10:58:53.885Z</time>
      </trkpt>
      <trkpt lat="28.066459950059652" lon="-15.463301930576563">
        <ele>266.4586486816406</ele>
        <time>2019-11-01T10:58:54.045Z</time>
      </trkpt>
      <trkpt lat="28.066378980875015" lon="-15.463287932798266">
        <ele>265.8943786621094</ele>
        <time>2019-11-01T10:58:54.219Z</time>
      </trkpt>
      <trkpt lat="28.066184939816594" lon="-15.463203946128488">
        <ele>263.8477478027344</ele>
        <time>2019-11-01T10:58:54.427Z</time>
      </trkpt>
      <trkpt lat="28.066100953146815" lon="-15.46318793669343">
        <ele>263.4012451171875</ele>
        <time>2019-11-01T10:58:54.649Z</time>
      </trkpt>
      <trkpt lat="28.066040938720107" lon="-15.463170921429992">
        <ele>262.9617614746094</ele>
        <time>2019-11-01T10:58:54.882Z</time>
      </trkpt>
      <trkpt lat="28.06593499146402" lon="-15.463177962228656">
        <ele>262.9866943359375</ele>
        <time>2019-11-01T10:58:55.132Z</time>
      </trkpt>
      <trkpt lat="28.06585494428873" lon="-15.463203946128488">
        <ele>262.5738220214844</ele>
        <time>2019-11-01T10:58:55.396Z</time>
      </trkpt>
      <trkpt lat="28.06576995179057" lon="-15.463223978877068">
        <ele>261.8847351074219</ele>
        <time>2019-11-01T10:58:55.674Z</time>
      </trkpt>
      <trkpt lat="28.06568194180727" lon="-15.4632499627769">
        <ele>261.28436279296875</ele>
        <time>2019-11-01T10:58:55.968Z</time>
      </trkpt>
      <trkpt lat="28.06559594348073" lon="-15.463275946676731">
        <ele>261.54998779296875</ele>
        <time>2019-11-01T10:58:56.276Z</time>
      </trkpt>
      <trkpt lat="28.06550994515419" lon="-15.463306959718466">
        <ele>262.00836181640625</ele>
        <time>2019-11-01T10:58:56.599Z</time>
      </trkpt>
      <trkpt lat="28.065430987626314" lon="-15.463334955275059">
        <ele>262.42694091796875</ele>
        <time>2019-11-01T10:58:56.936Z</time>
      </trkpt>
      <trkpt lat="28.065353957936168" lon="-15.463375942781568">
        <ele>262.9009094238281</ele>
        <time>2019-11-01T10:58:57.287Z</time>
      </trkpt>
      <trkpt lat="28.065289920195937" lon="-15.463440986350179">
        <ele>263.44354248046875</ele>
        <time>2019-11-01T10:58:57.653Z</time>
      </trkpt>
      <trkpt lat="28.06524893268943" lon="-15.463524973019958">
        <ele>263.994140625</ele>
        <time>2019-11-01T10:58:58.033Z</time>
      </trkpt>
      <trkpt lat="28.065191935747862" lon="-15.463585993275046">
        <ele>264.4921569824219</ele>
        <time>2019-11-01T10:58:58.426Z</time>
      </trkpt>
      <trkpt lat="28.06512496434152" lon="-15.463639972731471">
        <ele>264.9922790527344</ele>
        <time>2019-11-01T10:58:58.833Z</time>
      </trkpt>
      <trkpt lat="28.065052963793278" lon="-15.463691940531135">
        <ele>265.55084228515625</ele>
        <time>2019-11-01T10:58:59.254Z</time>
      </trkpt>
      <trkpt lat="28.064983980730176" lon="-15.463736951351166">
        <ele>266.0979309082031</ele>
        <time>2019-11-01T10:58:59.688Z</time>
      </trkpt>
      <trkpt lat="28.064903933554888" lon="-15.463783973827958">
        <ele>266.707763671875</ele>
        <time>2019-11-01T10:59:00.137Z</time>
      </trkpt>
      <trkpt lat="28.064824976027012" lon="-15.463834935799241">
        <ele>267.2942199707031</ele>
        <time>2019-11-01T10:59:00.601Z</time>
      </trkpt>
      <trkpt lat="28.064745934680104" lon="-15.463888999074697">
        <ele>267.6735534667969</ele>
        <time>2019-11-01T10:59:01.081Z</time>
      </trkpt>
      <trkpt lat="28.0646719224751" lon="-15.463940966874361">
        <ele>268.02874755859375</ele>
        <time>2019-11-01T10:59:01.575Z</time>
      </trkpt>
      <trkpt lat="28.06458399631083" lon="-15.463968962430954">
        <ele>268.45074462890625</ele>
        <time>2019-11-01T10:59:02.084Z</time>
      </trkpt>
      <trkpt lat="28.06450294330716" lon="-15.464012967422605">
        <ele>268.8397216796875</ele>
        <time>2019-11-01T10:59:02.608Z</time>
      </trkpt>
      <trkpt lat="28.06443396024406" lon="-15.464060995727777">
        <ele>269.1707763671875</ele>
        <time>2019-11-01T10:59:03.146Z</time>
      </trkpt>
      <trkpt lat="28.064361959695816" lon="-15.46411195769906">
        <ele>269.5163269042969</ele>
        <time>2019-11-01T10:59:03.698Z</time>
      </trkpt>
      <trkpt lat="28.06428593583405" lon="-15.464157974347472">
        <ele>269.8811950683594</ele>
        <time>2019-11-01T10:59:04.264Z</time>
      </trkpt>
      <trkpt lat="28.06419499218464" lon="-15.464184964075685">
        <ele>270.23822021484375</ele>
        <time>2019-11-01T10:59:04.846Z</time>
      </trkpt>
      <trkpt lat="28.064106982201338" lon="-15.464207930490375">
        <ele>270.5550231933594</ele>
        <time>2019-11-01T10:59:05.443Z</time>
      </trkpt>
      <trkpt lat="28.06402198970318" lon="-15.464249923825264">
        <ele>270.8609313964844</ele>
        <time>2019-11-01T10:59:06.055Z</time>
      </trkpt>
      <trkpt lat="28.063944960013032" lon="-15.464287977665663">
        <ele>271.13818359375</ele>
        <time>2019-11-01T10:59:06.681Z</time>
      </trkpt>
      <trkpt lat="28.063859967514873" lon="-15.464316979050636">
        <ele>271.4441223144531</ele>
        <time>2019-11-01T10:59:07.322Z</time>
      </trkpt>
      <trkpt lat="28.063777992501855" lon="-15.464347992092371">
        <ele>271.7391662597656</ele>
        <time>2019-11-01T10:59:07.977Z</time>
      </trkpt>
      <trkpt lat="28.063689982518554" lon="-15.464374981820583">
        <ele>272.0278625488281</ele>
        <time>2019-11-01T10:59:08.647Z</time>
      </trkpt>
      <trkpt lat="28.06359895505011" lon="-15.464404989033937">
        <ele>272.28228759765625</ele>
        <time>2019-11-01T10:59:09.333Z</time>
      </trkpt>
      <trkpt lat="28.063519997522235" lon="-15.464423932135105">
        <ele>272.4944763183594</ele>
        <time>2019-11-01T10:59:10.033Z</time>
      </trkpt>
      <trkpt lat="28.063433999195695" lon="-15.46443097293377">
        <ele>272.70928955078125</ele>
        <time>2019-11-01T10:59:10.747Z</time>
      </trkpt>
      <trkpt lat="28.063350934535265" lon="-15.464424937963486">
        <ele>273.3619384765625</ele>
        <time>2019-11-01T10:59:11.475Z</time>
      </trkpt>
      <trkpt lat="28.063265942037106" lon="-15.46443197876215">
        <ele>274.0841979980469</ele>
        <time>2019-11-01T10:59:12.217Z</time>
      </trkpt>
      <trkpt lat="28.06318597868085" lon="-15.464462991803885">
        <ele>274.79296875</ele>
        <time>2019-11-01T10:59:12.973Z</time>
      </trkpt>
      <trkpt lat="28.063107943162322" lon="-15.464505990967155">
        <ele>275.4999694824219</ele>
        <time>2019-11-01T10:59:13.743Z</time>
      </trkpt>
      <trkpt lat="28.06303020372272" lon="-15.464549876134729">
        <ele>276.20550537109375</ele>
        <time>2019-11-01T10:59:14.528Z</time>
      </trkpt>
      <trkpt lat="28.063029991462827" lon="-15.464549995958805">
        <ele>276.2074279785156</ele>
        <time>2019-11-01T10:59:15.313Z</time>
      </trkpt>
      <trkpt lat="28.062948938459158" lon="-15.464592995122075">
        <ele>276.93975830078125</ele>
        <time>2019-11-01T10:59:16.113Z</time>
      </trkpt>
      <trkpt lat="28.06286796927452" lon="-15.464638927951455">
        <ele>277.6748962402344</ele>
        <time>2019-11-01T10:59:16.928Z</time>
      </trkpt>
      <trkpt lat="28.062783982604742" lon="-15.46466893516481">
        <ele>278.4459533691406</ele>
        <time>2019-11-01T10:59:17.758Z</time>
      </trkpt>
      <trkpt lat="28.062733942642808" lon="-15.46471394598484">
        <ele>279.0822448730469</ele>
        <time>2019-11-01T10:59:18.598Z</time>
      </trkpt>
      <trkpt lat="28.06265397928655" lon="-15.464788964018226">
        <ele>280.1138610839844</ele>
        <time>2019-11-01T10:59:19.456Z</time>
      </trkpt>
      <trkpt lat="28.062594970688224" lon="-15.464866999536753">
        <ele>280.98394775390625</ele>
        <time>2019-11-01T10:59:20.329Z</time>
      </trkpt>
      <trkpt lat="28.062548954039812" lon="-15.46494897454977">
        <ele>281.4921875</ele>
        <time>2019-11-01T10:59:21.216Z</time>
      </trkpt>
      <trkpt lat="28.062486927956343" lon="-15.46501494012773">
        <ele>281.9576110839844</ele>
        <time>2019-11-01T10:59:22.117Z</time>
      </trkpt>
      <trkpt lat="28.06241593323648" lon="-15.465050982311368">
        <ele>282.30096435546875</ele>
        <time>2019-11-01T10:59:23.031Z</time>
      </trkpt>
      <trkpt lat="28.062346950173378" lon="-15.46509993262589">
        <ele>282.701416015625</ele>
        <time>2019-11-01T10:59:23.959Z</time>
      </trkpt>
      <trkpt lat="28.062278972938657" lon="-15.465154917910695">
        <ele>283.12841796875</ele>
        <time>2019-11-01T10:59:24.901Z</time>
      </trkpt>
      <trkpt lat="28.06220395490527" lon="-15.46520495787263">
        <ele>283.548583984375</ele>
        <time>2019-11-01T10:59:25.857Z</time>
      </trkpt>
      <trkpt lat="28.06213798932731" lon="-15.465262960642576">
        <ele>283.9852294921875</ele>
        <time>2019-11-01T10:59:26.827Z</time>
      </trkpt>
      <trkpt lat="28.06207093410194" lon="-15.465331943705678">
        <ele>284.4772033691406</ele>
        <time>2019-11-01T10:59:27.812Z</time>
      </trkpt>
      <trkpt lat="28.062002956867218" lon="-15.465395981445909">
        <ele>284.9476623535156</ele>
        <time>2019-11-01T10:59:28.812Z</time>
      </trkpt>
      <trkpt lat="28.061930956318974" lon="-15.46544392593205">
        <ele>285.35052490234375</ele>
        <time>2019-11-01T10:59:29.826Z</time>
      </trkpt>
      <trkpt lat="28.061852920800447" lon="-15.465478962287307">
        <ele>285.7059326171875</ele>
        <time>2019-11-01T10:59:30.854Z</time>
      </trkpt>
      <trkpt lat="28.061766922473907" lon="-15.465518943965435">
        <ele>286.1338806152344</ele>
        <time>2019-11-01T10:59:31.897Z</time>
      </trkpt>
      <trkpt lat="28.06168494746089" lon="-15.465556997805834">
        <ele>286.4834899902344</ele>
        <time>2019-11-01T10:59:32.955Z</time>
      </trkpt>
      <trkpt lat="28.06160196661949" lon="-15.465605948120356">
        <ele>286.91754150390625</ele>
        <time>2019-11-01T10:59:34.028Z</time>
      </trkpt>
      <trkpt lat="28.06151395663619" lon="-15.46563796699047">
        <ele>287.2823791503906</ele>
        <time>2019-11-01T10:59:35.117Z</time>
      </trkpt>
      <trkpt lat="28.061475862028118" lon="-15.465643339308144">
        <ele>287.39959716796875</ele>
        <time>2019-11-01T10:59:36.212Z</time>
      </trkpt>
      <trkpt lat="28.06111675488007" lon="-15.46576738357544">
        <ele>288.8565979003906</ele>
        <time>2019-11-01T10:59:37.370Z</time>
      </trkpt>
      <trkpt lat="28.060901138003437" lon="-15.4659713989397">
        <ele>290.3531188964844</ele>
        <time>2019-11-01T10:59:38.574Z</time>
      </trkpt>
      <trkpt lat="28.060881961137056" lon="-15.46600199304521">
        <ele>290.54595947265625</ele>
        <time>2019-11-01T10:59:39.784Z</time>
      </trkpt>
      <trkpt lat="28.06084591895342" lon="-15.466082962229848">
        <ele>291.0210266113281</ele>
        <time>2019-11-01T10:59:41.007Z</time>
      </trkpt>
      <trkpt lat="28.060795962810516" lon="-15.46615295112133">
        <ele>291.476806640625</ele>
        <time>2019-11-01T10:59:42.243Z</time>
      </trkpt>
      <trkpt lat="28.060734942555428" lon="-15.466225957497954">
        <ele>291.9736022949219</ele>
        <time>2019-11-01T10:59:43.494Z</time>
      </trkpt>
      <trkpt lat="28.060666965320706" lon="-15.46628194861114">
        <ele>292.4054260253906</ele>
        <time>2019-11-01T10:59:44.759Z</time>
      </trkpt>
      <trkpt lat="28.06058993563056" lon="-15.466328971087933">
        <ele>292.8143310546875</ele>
        <time>2019-11-01T10:59:46.039Z</time>
      </trkpt>
      <trkpt lat="28.060508966445923" lon="-15.466385968029499">
        <ele>293.2137756347656</ele>
        <time>2019-11-01T10:59:47.335Z</time>
      </trkpt>
      <trkpt lat="28.06043797172606" lon="-15.466441959142685">
        <ele>293.5856628417969</ele>
        <time>2019-11-01T10:59:48.645Z</time>
      </trkpt>
      <trkpt lat="28.06036999449134" lon="-15.466514965519309">
        <ele>294.0115661621094</ele>
        <time>2019-11-01T10:59:49.971Z</time>
      </trkpt>
      <trkpt lat="28.060297993943095" lon="-15.466571962460876">
        <ele>294.3894958496094</ele>
        <time>2019-11-01T10:59:51.311Z</time>
      </trkpt>
      <trkpt lat="28.060233956202865" lon="-15.4666259419173">
        <ele>294.7374572753906</ele>
        <time>2019-11-01T10:59:52.665Z</time>
      </trkpt>
      <trkpt lat="28.06018299423158" lon="-15.46666894108057">
        <ele>295.0145263671875</ele>
        <time>2019-11-01T10:59:54.029Z</time>
      </trkpt>
      <trkpt lat="28.06009892374277" lon="-15.466756951063871">
        <ele>295.5330505371094</ele>
        <time>2019-11-01T10:59:55.412Z</time>
      </trkpt>
      <trkpt lat="28.06004997342825" lon="-15.46684093773365">
        <ele>296.1106262207031</ele>
        <time>2019-11-01T10:59:56.810Z</time>
      </trkpt>
      <trkpt lat="28.060002950951457" lon="-15.466924924403429">
        <ele>296.69500732421875</ele>
        <time>2019-11-01T10:59:58.223Z</time>
      </trkpt>
      <trkpt lat="28.05996498093009" lon="-15.467007989063859">
        <ele>297.2217712402344</ele>
        <time>2019-11-01T10:59:59.650Z</time>
      </trkpt>
      <trkpt lat="28.05989993736148" lon="-15.467063980177045">
        <ele>297.8135070800781</ele>
        <time>2019-11-01T11:00:01.090Z</time>
      </trkpt>
      <trkpt lat="28.059820979833603" lon="-15.467090969905257">
        <ele>298.3843078613281</ele>
        <time>2019-11-01T11:00:02.544Z</time>
      </trkpt>
      <trkpt lat="28.05975493043661" lon="-15.467148972675204">
        <ele>298.98931884765625</ele>
        <time>2019-11-01T11:00:04.012Z</time>
      </trkpt>
      <trkpt lat="28.05973095819354" lon="-15.467242933809757">
        <ele>299.27496337890625</ele>
        <time>2019-11-01T11:00:05.494Z</time>
      </trkpt>
      <trkpt lat="28.059721989557147" lon="-15.467259949073195">
        <ele>299.34918212890625</ele>
        <time>2019-11-01T11:00:06.979Z</time>
      </trkpt>
      <trkpt lat="28.059698939323425" lon="-15.467293979600072">
        <ele>299.5282897949219</ele>
        <time>2019-11-01T11:00:08.470Z</time>
      </trkpt>
      <trkpt lat="28.05958192795515" lon="-15.467431945726275">
        <ele>300.3957824707031</ele>
        <time>2019-11-01T11:00:09.990Z</time>
      </trkpt>
      <trkpt lat="28.05951294489205" lon="-15.467510987073183">
        <ele>300.9044494628906</ele>
        <time>2019-11-01T11:00:11.526Z</time>
      </trkpt>
      <trkpt lat="28.059454942122102" lon="-15.467597991228104">
        <ele>301.3567810058594</ele>
        <time>2019-11-01T11:00:13.078Z</time>
      </trkpt>
      <trkpt lat="28.059411942958832" lon="-15.467679966241121">
        <ele>301.7131042480469</ele>
        <time>2019-11-01T11:00:14.644Z</time>
      </trkpt>
      <trkpt lat="28.05936492048204" lon="-15.4677639529109">
        <ele>302.095947265625</ele>
        <time>2019-11-01T11:00:16.225Z</time>
      </trkpt>
      <trkpt lat="28.059308929368854" lon="-15.46782698482275">
        <ele>302.5074768066406</ele>
        <time>2019-11-01T11:00:17.819Z</time>
      </trkpt>
      <trkpt lat="28.059282945469022" lon="-15.467917928472161">
        <ele>302.7724609375</ele>
        <time>2019-11-01T11:00:19.427Z</time>
      </trkpt>
      <trkpt lat="28.059289986267686" lon="-15.468015996739268">
        <ele>303.13836669921875</ele>
        <time>2019-11-01T11:00:21.049Z</time>
      </trkpt>
      <trkpt lat="28.0593169759959" lon="-15.468104928731918">
        <ele>303.5975341796875</ele>
        <time>2019-11-01T11:00:22.685Z</time>
      </trkpt>
      <trkpt lat="28.05934295989573" lon="-15.468190927058458">
        <ele>304.04144287109375</ele>
        <time>2019-11-01T11:00:24.335Z</time>
      </trkpt>
      <trkpt lat="28.059370955452323" lon="-15.468282960355282">
        <ele>304.5167236328125</ele>
        <time>2019-11-01T11:00:25.999Z</time>
      </trkpt>
      <trkpt lat="28.05938897654414" lon="-15.468355966731906">
        <ele>304.8887023925781</ele>
        <time>2019-11-01T11:00:27.674Z</time>
      </trkpt>
      <trkpt lat="28.05941093713045" lon="-15.468447916209698">
        <ele>305.3563537597656</ele>
        <time>2019-11-01T11:00:29.363Z</time>
      </trkpt>
      <trkpt lat="28.059440944343805" lon="-15.468568950891495">
        <ele>305.97320556640625</ele>
        <time>2019-11-01T11:00:31.071Z</time>
      </trkpt>
      <trkpt lat="28.059467934072018" lon="-15.468669952824712">
        <ele>306.906005859375</ele>
        <time>2019-11-01T11:00:32.794Z</time>
      </trkpt>
      <trkpt lat="28.059499952942133" lon="-15.468760980293155">
        <ele>308.4146728515625</ele>
        <time>2019-11-01T11:00:34.532Z</time>
      </trkpt>
      <trkpt lat="28.059527948498726" lon="-15.468854941427708">
        <ele>309.8266906738281</ele>
        <time>2019-11-01T11:00:36.284Z</time>
      </trkpt>
      <trkpt lat="28.059547981247306" lon="-15.468955943360925">
        <ele>310.9884338378906</ele>
        <time>2019-11-01T11:00:38.052Z</time>
      </trkpt>
      <trkpt lat="28.05955896154046" lon="-15.46905493363738">
        <ele>312.0439758300781</ele>
        <time>2019-11-01T11:00:39.834Z</time>
      </trkpt>
      <trkpt lat="28.059548987075686" lon="-15.469126934185624">
        <ele>312.6393127441406</ele>
        <time>2019-11-01T11:00:41.627Z</time>
      </trkpt>
      <trkpt lat="28.05953993462026" lon="-15.469249980524182">
        <ele>313.7334899902344</ele>
        <time>2019-11-01T11:00:43.438Z</time>
      </trkpt>
      <trkpt lat="28.059553932398558" lon="-15.469345953315496">
        <ele>314.7890319824219</ele>
        <time>2019-11-01T11:00:45.264Z</time>
      </trkpt>
      <trkpt lat="28.059569941833615" lon="-15.469412924721837">
        <ele>315.2195739746094</ele>
        <time>2019-11-01T11:00:47.100Z</time>
      </trkpt>
      <trkpt lat="28.059574970975522" lon="-15.469508981332183">
        <ele>315.5834045410156</ele>
        <time>2019-11-01T11:00:48.950Z</time>
      </trkpt>
      <trkpt lat="28.059573965147138" lon="-15.469607971608639">
        <ele>315.93609619140625</ele>
        <time>2019-11-01T11:00:50.815Z</time>
      </trkpt>
      <trkpt lat="28.059596931561828" lon="-15.469701932743192">
        <ele>316.3084716796875</ele>
        <time>2019-11-01T11:00:52.694Z</time>
      </trkpt>
      <trkpt lat="28.05962492711842" lon="-15.469793966040015">
        <ele>316.6300964355469</ele>
        <time>2019-11-01T11:00:54.587Z</time>
      </trkpt>
      <trkpt lat="28.05966499261558" lon="-15.469881976023316">
        <ele>316.9855041503906</ele>
        <time>2019-11-01T11:00:56.495Z</time>
      </trkpt>
      <trkpt lat="28.059675972908735" lon="-15.470001921057701">
        <ele>317.3128356933594</ele>
        <time>2019-11-01T11:00:58.421Z</time>
      </trkpt>
      <trkpt lat="28.05970991961658" lon="-15.470092948526144">
        <ele>317.3683166503906</ele>
        <time>2019-11-01T11:01:00.361Z</time>
      </trkpt>
      <trkpt lat="28.059735987335443" lon="-15.470140976831317">
        <ele>317.1329040527344</ele>
        <time>2019-11-01T11:01:02.310Z</time>
      </trkpt>
      <trkpt lat="28.059777980670333" lon="-15.470209959894419">
        <ele>316.7838439941406</ele>
        <time>2019-11-01T11:01:04.271Z</time>
      </trkpt>
      <trkpt lat="28.059845957905054" lon="-15.470290929079056">
        <ele>316.32928466796875</ele>
        <time>2019-11-01T11:01:06.248Z</time>
      </trkpt>
      <trkpt lat="28.059913876466222" lon="-15.470392848794097">
        <ele>315.7994384765625</ele>
        <time>2019-11-01T11:01:08.244Z</time>
      </trkpt>
      <trkpt lat="28.059913935139775" lon="-15.470392936840653">
        <ele>315.7989807128906</ele>
        <time>2019-11-01T11:01:10.240Z</time>
      </trkpt>
      <trkpt lat="28.059931956231594" lon="-15.470486981794238">
        <ele>315.417236328125</ele>
        <time>2019-11-01T11:01:12.250Z</time>
      </trkpt>
      <trkpt lat="28.059950983151793" lon="-15.47057893127203">
        <ele>315.5441589355469</ele>
        <time>2019-11-01T11:01:14.274Z</time>
      </trkpt>
      <trkpt lat="28.059979984536767" lon="-15.470672976225615">
        <ele>315.7002258300781</ele>
        <time>2019-11-01T11:01:16.313Z</time>
      </trkpt>
      <trkpt lat="28.060015942901373" lon="-15.470767943188548">
        <ele>315.8418273925781</ele>
        <time>2019-11-01T11:01:18.367Z</time>
      </trkpt>
      <trkpt lat="28.060058942064643" lon="-15.470852935686707">
        <ele>315.9425964355469</ele>
        <time>2019-11-01T11:01:20.436Z</time>
      </trkpt>
      <trkpt lat="28.060089955106378" lon="-15.470949998125434">
        <ele>316.1011047363281</ele>
        <time>2019-11-01T11:01:22.520Z</time>
      </trkpt>
      <trkpt lat="28.060104958713055" lon="-15.47104999423027">
        <ele>316.545654296875</ele>
        <time>2019-11-01T11:01:24.619Z</time>
      </trkpt>
      <trkpt lat="28.060109987854958" lon="-15.471153929829597">
        <ele>316.8916015625</ele>
        <time>2019-11-01T11:01:26.733Z</time>
      </trkpt>
      <trkpt lat="28.060103952884674" lon="-15.471235988661647">
        <ele>316.97265625</ele>
        <time>2019-11-01T11:01:28.859Z</time>
      </trkpt>
      <trkpt lat="28.060077968984842" lon="-15.471355933696032">
        <ele>317.1825256347656</ele>
        <time>2019-11-01T11:01:31.003Z</time>
      </trkpt>
      <trkpt lat="28.06002893485129" lon="-15.471422988921404">
        <ele>317.5535888671875</ele>
        <time>2019-11-01T11:01:33.160Z</time>
      </trkpt>
      <trkpt lat="28.059974955394864" lon="-15.4715009406209">
        <ele>318.0067443847656</ele>
        <time>2019-11-01T11:01:35.332Z</time>
      </trkpt>
      <trkpt lat="28.05992499925196" lon="-15.471583921462297">
        <ele>318.5431823730469</ele>
        <time>2019-11-01T11:01:37.519Z</time>
      </trkpt>
      <trkpt lat="28.059864984825253" lon="-15.471667991951108">
        <ele>319.0189514160156</ele>
        <time>2019-11-01T11:01:39.722Z</time>
      </trkpt>
      <trkpt lat="28.05981377610545" lon="-15.471737779445448">
        <ele>319.4039001464844</ele>
        <time>2019-11-01T11:01:41.938Z</time>
      </trkpt>
      <trkpt lat="28.059862287671145" lon="-15.47176480293274">
        <ele>320.044921875</ele>
        <time>2019-11-01T11:01:44.163Z</time>
      </trkpt>
      <trkpt lat="28.059931249210116" lon="-15.471818160957014">
        <ele>321.1175231933594</ele>
        <time>2019-11-01T11:01:46.402Z</time>
      </trkpt>
      <trkpt lat="28.059984929859638" lon="-15.47184593975544">
        <ele>321.8039245605469</ele>
        <time>2019-11-01T11:01:48.651Z</time>
      </trkpt>
      <trkpt lat="28.060063971206546" lon="-15.471847951412201">
        <ele>322.3946533203125</ele>
        <time>2019-11-01T11:01:50.913Z</time>
      </trkpt>
      <trkpt lat="28.060127925127745" lon="-15.471819955855608">
        <ele>323.084716796875</ele>
        <time>2019-11-01T11:01:53.186Z</time>
      </trkpt>
      <trkpt lat="28.060195986181498" lon="-15.471824984997511">
        <ele>324.6905822753906</ele>
        <time>2019-11-01T11:01:55.471Z</time>
      </trkpt>
      <trkpt lat="28.060252983123064" lon="-15.471798917278647">
        <ele>325.7084045410156</ele>
        <time>2019-11-01T11:01:57.766Z</time>
      </trkpt>
      <trkpt lat="28.06030796840787" lon="-15.471805958077312">
        <ele>327.0378723144531</ele>
        <time>2019-11-01T11:02:00.070Z</time>
      </trkpt>
      <trkpt lat="28.060358930379152" lon="-15.471837976947427">
        <ele>328.5453796386719</ele>
        <time>2019-11-01T11:02:02.384Z</time>
      </trkpt>
      <trkpt lat="28.06041793897748" lon="-15.471885921433568">
        <ele>330.2928161621094</ele>
        <time>2019-11-01T11:02:04.710Z</time>
      </trkpt>
      <trkpt lat="28.06047895923257" lon="-15.471928920596838">
        <ele>331.8985595703125</ele>
        <time>2019-11-01T11:02:07.048Z</time>
      </trkpt>
      <trkpt lat="28.060508966445923" lon="-15.47192799858749">
        <ele>332.50286865234375</ele>
        <time>2019-11-01T11:02:09.391Z</time>
      </trkpt>
      <trkpt lat="28.060550959780812" lon="-15.471910983324051">
        <ele>333.21649169921875</ele>
        <time>2019-11-01T11:02:11.741Z</time>
      </trkpt>
      <trkpt lat="28.060597982257605" lon="-15.471925986930728">
        <ele>334.30157470703125</ele>
        <time>2019-11-01T11:02:14.099Z</time>
      </trkpt>
      <trkpt lat="28.06069395504892" lon="-15.472027994692326">
        <ele>337.1158142089844</ele>
        <time>2019-11-01T11:02:16.479Z</time>
      </trkpt>
      <trkpt lat="28.060732930898666" lon="-15.472128996625543">
        <ele>338.7590637207031</ele>
        <time>2019-11-01T11:02:18.875Z</time>
      </trkpt>
      <trkpt lat="28.060765955597162" lon="-15.472202925011516">
        <ele>340.5453186035156</ele>
        <time>2019-11-01T11:02:21.284Z</time>
      </trkpt>
      <trkpt lat="28.060811972245574" lon="-15.472270986065269">
        <ele>342.87213134765625</ele>
        <time>2019-11-01T11:02:23.705Z</time>
      </trkpt>
      <trkpt lat="28.06084298528731" lon="-15.47235899604857">
        <ele>343.94696044921875</ele>
        <time>2019-11-01T11:02:26.140Z</time>
      </trkpt>
      <trkpt lat="28.060829993337393" lon="-15.472451951354742">
        <ele>344.6185607910156</ele>
        <time>2019-11-01T11:02:28.589Z</time>
      </trkpt>
      <trkpt lat="28.06080392561853" lon="-15.472546918317676">
        <ele>345.19720458984375</ele>
        <time>2019-11-01T11:02:31.053Z</time>
      </trkpt>
      <trkpt lat="28.060789927840233" lon="-15.4726199246943">
        <ele>345.69281005859375</ele>
        <time>2019-11-01T11:02:33.528Z</time>
      </trkpt>
      <trkpt lat="28.060790933668613" lon="-15.472708940505981">
        <ele>346.4488525390625</ele>
        <time>2019-11-01T11:02:36.016Z</time>
      </trkpt>
      <trkpt lat="28.060778947547078" lon="-15.472754957154393">
        <ele>346.7346496582031</ele>
        <time>2019-11-01T11:02:38.511Z</time>
      </trkpt>
      <trkpt lat="28.06075899861753" lon="-15.472862999886274">
        <ele>347.4745178222656</ele>
        <time>2019-11-01T11:02:41.022Z</time>
      </trkpt>
      <trkpt lat="28.06074097752571" lon="-15.472953943535686">
        <ele>348.08697509765625</ele>
        <time>2019-11-01T11:02:43.547Z</time>
      </trkpt>
      <trkpt lat="28.06071599945426" lon="-15.473064919933677">
        <ele>348.8092346191406</ele>
        <time>2019-11-01T11:02:46.089Z</time>
      </trkpt>
      <trkpt lat="28.060681968927383" lon="-15.473187966272235">
        <ele>349.5568542480469</ele>
        <time>2019-11-01T11:02:48.650Z</time>
      </trkpt>
      <trkpt lat="28.06067492812872" lon="-15.473215961828828">
        <ele>349.73284912109375</ele>
        <time>2019-11-01T11:02:51.215Z</time>
      </trkpt>
      <trkpt lat="28.060643998906016" lon="-15.473379995673895">
        <ele>350.0</ele>
        <time>2019-11-01T11:02:53.805Z</time>
      </trkpt>
      <trkpt lat="28.060645926743746" lon="-15.473486948758364">
        <ele>350.0</ele>
        <time>2019-11-01T11:02:56.411Z</time>
      </trkpt>
      <trkpt lat="28.060664953663945" lon="-15.473583927378058">
        <ele>350.0</ele>
        <time>2019-11-01T11:02:59.031Z</time>
      </trkpt>
      <trkpt lat="28.060691943392158" lon="-15.473683923482895">
        <ele>350.0</ele>
        <time>2019-11-01T11:03:01.667Z</time>
      </trkpt>
      <trkpt lat="28.06071993894875" lon="-15.473788948729634">
        <ele>350.0</ele>
        <time>2019-11-01T11:03:04.319Z</time>
      </trkpt>
      <trkpt lat="28.060748940333724" lon="-15.473885927349329">
        <ele>350.205322265625</ele>
        <time>2019-11-01T11:03:06.986Z</time>
      </trkpt>
      <trkpt lat="28.06075992062688" lon="-15.47397494316101">
        <ele>350.5257263183594</ele>
        <time>2019-11-01T11:03:09.666Z</time>
      </trkpt>
      <trkpt lat="28.060754975304008" lon="-15.47407896257937">
        <ele>350.24700927734375</ele>
        <time>2019-11-01T11:03:12.362Z</time>
      </trkpt>
      <trkpt lat="28.060742989182472" lon="-15.474178958684206">
        <ele>349.8677673339844</ele>
        <time>2019-11-01T11:03:15.072Z</time>
      </trkpt>
      <trkpt lat="28.060711976140738" lon="-15.474248947575688">
        <ele>349.7923583984375</ele>
        <time>2019-11-01T11:03:17.794Z</time>
      </trkpt>
      <trkpt lat="28.060659924522042" lon="-15.474350955337286">
        <ele>349.7399597167969</ele>
        <time>2019-11-01T11:03:20.533Z</time>
      </trkpt>
      <trkpt lat="28.060622960329056" lon="-15.474432930350304">
        <ele>349.656982421875</ele>
        <time>2019-11-01T11:03:23.286Z</time>
      </trkpt>
      <trkpt lat="28.060576943680644" lon="-15.474513983353972">
        <ele>349.65447998046875</ele>
        <time>2019-11-01T11:03:26.053Z</time>
      </trkpt>
      <trkpt lat="28.060536962002516" lon="-15.474610961973667">
        <ele>349.52484130859375</ele>
        <time>2019-11-01T11:03:28.836Z</time>
      </trkpt>
      <trkpt lat="28.060495974496007" lon="-15.47470299527049">
        <ele>349.9637756347656</ele>
        <time>2019-11-01T11:03:31.634Z</time>
      </trkpt>
      <trkpt lat="28.060449957847595" lon="-15.474794944748282">
        <ele>351.12249755859375</ele>
        <time>2019-11-01T11:03:34.448Z</time>
      </trkpt>
      <trkpt lat="28.060425985604525" lon="-15.47487398609519">
        <ele>351.9876708984375</ele>
        <time>2019-11-01T11:03:37.274Z</time>
      </trkpt>
      <trkpt lat="28.06039597839117" lon="-15.474922936409712">
        <ele>352.6507873535156</ele>
        <time>2019-11-01T11:03:40.109Z</time>
      </trkpt>
      <trkpt lat="28.060367982834578" lon="-15.47496099025011">
        <ele>353.20550537109375</ele>
        <time>2019-11-01T11:03:42.951Z</time>
      </trkpt>
      <trkpt lat="28.06030998006463" lon="-15.475083952769637">
        <ele>354.7253723144531</ele>
        <time>2019-11-01T11:03:45.814Z</time>
      </trkpt>
      <trkpt lat="28.060323977842927" lon="-15.475143967196345">
        <ele>355.1118469238281</ele>
        <time>2019-11-01T11:03:48.686Z</time>
      </trkpt>
      <trkpt lat="28.060386925935745" lon="-15.475209932774305">
        <ele>355.0160217285156</ele>
        <time>2019-11-01T11:03:51.572Z</time>
      </trkpt>
      <trkpt lat="28.060467978939414" lon="-15.475280927494168">
        <ele>352.3775634765625</ele>
        <time>2019-11-01T11:03:54.475Z</time>
      </trkpt>
      <trkpt lat="28.060513995587826" lon="-15.475348988547921">
        <ele>350.6465148925781</ele>
        <time>2019-11-01T11:03:57.391Z</time>
      </trkpt>
      <trkpt lat="28.06054794229567" lon="-15.4754329752177">
        <ele>349.0858459472656</ele>
        <time>2019-11-01T11:04:00.320Z</time>
      </trkpt>
      <trkpt lat="28.06058993563056" lon="-15.475521991029382">
        <ele>347.37432861328125</ele>
        <time>2019-11-01T11:04:03.264Z</time>
      </trkpt>
      <trkpt lat="28.06060896255076" lon="-15.475588962435722">
        <ele>346.57354736328125</ele>
        <time>2019-11-01T11:04:06.219Z</time>
      </trkpt>
      <trkpt lat="28.060648944228888" lon="-15.475682923570275">
        <ele>345.115234375</ele>
        <time>2019-11-01T11:04:09.189Z</time>
      </trkpt>
      <trkpt lat="28.060659924522042" lon="-15.475773951038718">
        <ele>344.4533386230469</ele>
        <time>2019-11-01T11:04:12.172Z</time>
      </trkpt>
      <trkpt lat="28.060672916471958" lon="-15.475844945758581">
        <ele>344.1883544921875</ele>
        <time>2019-11-01T11:04:15.166Z</time>
      </trkpt>
      <trkpt lat="28.060687920078635" lon="-15.475963968783617">
        <ele>343.88232421875</ele>
        <time>2019-11-01T11:04:18.178Z</time>
      </trkpt>
      <trkpt lat="28.060692949220538" lon="-15.476102940738201">
        <ele>343.7797546386719</ele>
        <time>2019-11-01T11:04:21.210Z</time>
      </trkpt>
      <trkpt lat="28.060710970312357" lon="-15.476174941286445">
        <ele>343.41217041015625</ele>
        <time>2019-11-01T11:04:24.253Z</time>
      </trkpt>
      <trkpt lat="28.060706946998835" lon="-15.476220957934856">
        <ele>343.4942321777344</ele>
        <time>2019-11-01T11:04:27.303Z</time>
      </trkpt>
      <trkpt lat="28.06069596670568" lon="-15.476247947663069">
        <ele>343.71820068359375</ele>
        <time>2019-11-01T11:04:30.358Z</time>
      </trkpt>
      <trkpt lat="28.060683980584145" lon="-15.476308967918158">
        <ele>343.9626770019531</ele>
        <time>2019-11-01T11:04:33.422Z</time>
      </trkpt>
      <trkpt lat="28.060668976977468" lon="-15.476352972909808">
        <ele>344.0130615234375</ele>
        <time>2019-11-01T11:04:36.493Z</time>
      </trkpt>
      <trkpt lat="28.060660930350423" lon="-15.47648498788476">
        <ele>342.7516784667969</ele>
        <time>2019-11-01T11:04:39.583Z</time>
      </trkpt>
      <trkpt lat="28.060661936178803" lon="-15.476548941805959">
        <ele>342.0405578613281</ele>
        <time>2019-11-01T11:04:42.683Z</time>
      </trkpt>
      <trkpt lat="28.060669982805848" lon="-15.476591940969229">
        <ele>341.53375244140625</ele>
        <time>2019-11-01T11:04:45.789Z</time>
      </trkpt>
      <trkpt lat="28.060688925907016" lon="-15.476647932082415">
        <ele>342.2509765625</ele>
        <time>2019-11-01T11:04:48.904Z</time>
      </trkpt>
      <trkpt lat="28.0606949608773" lon="-15.476719932630658">
        <ele>343.12933349609375</ele>
        <time>2019-11-01T11:04:52.030Z</time>
      </trkpt>
      <trkpt lat="28.06071692146361" lon="-15.476769972592592">
        <ele>343.78240966796875</ele>
        <time>2019-11-01T11:04:55.164Z</time>
      </trkpt>
      <trkpt lat="28.060752963647246" lon="-15.476796962320805">
        <ele>344.1927185058594</ele>
        <time>2019-11-01T11:04:58.305Z</time>
      </trkpt>
      <trkpt lat="28.060808954760432" lon="-15.476798973977566">
        <ele>344.3511962890625</ele>
        <time>2019-11-01T11:05:01.455Z</time>
      </trkpt>
      <trkpt lat="28.0608469247818" lon="-15.47676695510745">
        <ele>344.05816650390625</ele>
        <time>2019-11-01T11:05:04.613Z</time>
      </trkpt>
      <trkpt lat="28.060901993885636" lon="-15.47672194428742">
        <ele>343.6502685546875</ele>
        <time>2019-11-01T11:05:07.783Z</time>
      </trkpt>
      <trkpt lat="28.061027973890305" lon="-15.476630916818976">
        <ele>344.9140319824219</ele>
        <time>2019-11-01T11:05:10.977Z</time>
      </trkpt>
      <trkpt lat="28.06110491976142" lon="-15.476658996194601">
        <ele>347.0050048828125</ele>
        <time>2019-11-01T11:05:14.185Z</time>
      </trkpt>
      <trkpt lat="28.06118899025023" lon="-15.476653967052698">
        <ele>348.86114501953125</ele>
        <time>2019-11-01T11:05:17.407Z</time>
      </trkpt>
      <trkpt lat="28.061207933351398" lon="-15.476581966504455">
        <ele>348.4291076660156</ele>
        <time>2019-11-01T11:05:20.640Z</time>
      </trkpt>
      <trkpt lat="28.061203993856907" lon="-15.476505942642689">
        <ele>347.4271545410156</ele>
        <time>2019-11-01T11:05:23.884Z</time>
      </trkpt>
      <trkpt lat="28.06123098358512" lon="-15.47642195597291">
        <ele>347.0347595214844</ele>
        <time>2019-11-01T11:05:27.141Z</time>
      </trkpt>
      <trkpt lat="28.061258989935617" lon="-15.476336930705228">
        <ele>346.653076171875</ele>
        <time>2019-11-01T11:05:30.412Z</time>
      </trkpt>
      <trkpt lat="28.061258979141712" lon="-15.47633696347475">
        <ele>346.6531982421875</ele>
        <time>2019-11-01T11:05:33.683Z</time>
      </trkpt>
      <trkpt lat="28.061290998011827" lon="-15.476243924349546">
        <ele>345.5498046875</ele>
        <time>2019-11-01T11:05:36.968Z</time>
      </trkpt>
      <trkpt lat="28.061336930841208" lon="-15.476157926023006">
        <ele>344.84283447265625</ele>
        <time>2019-11-01T11:05:40.268Z</time>
      </trkpt>
      <trkpt lat="28.061368949711323" lon="-15.476067988201976">
        <ele>343.7383117675781</ele>
        <time>2019-11-01T11:05:43.583Z</time>
      </trkpt>
      <trkpt lat="28.061416978016496" lon="-15.475979978218675">
        <ele>343.0380554199219</ele>
        <time>2019-11-01T11:05:46.913Z</time>
      </trkpt>
      <trkpt lat="28.061476992443204" lon="-15.475896997377276">
        <ele>342.7136535644531</ele>
        <time>2019-11-01T11:05:50.259Z</time>
      </trkpt>
      <trkpt lat="28.061526948586106" lon="-15.475824996829033">
        <ele>342.3838806152344</ele>
        <time>2019-11-01T11:05:53.618Z</time>
      </trkpt>
      <trkpt lat="28.061572965234518" lon="-15.475741932168603">
        <ele>341.7386474609375</ele>
        <time>2019-11-01T11:05:56.992Z</time>
      </trkpt>
      <trkpt lat="28.06161697022617" lon="-15.475654928013682">
        <ele>340.96722412109375</ele>
        <time>2019-11-01T11:06:00.380Z</time>
      </trkpt>
      <trkpt lat="28.06166298687458" lon="-15.475574964657426">
        <ele>340.765380859375</ele>
        <time>2019-11-01T11:06:03.782Z</time>
      </trkpt>
      <trkpt lat="28.061719983816147" lon="-15.47549894079566">
        <ele>340.90216064453125</ele>
        <time>2019-11-01T11:06:07.199Z</time>
      </trkpt>
      <trkpt lat="28.061776980757713" lon="-15.475420989096165">
        <ele>340.18743896484375</ele>
        <time>2019-11-01T11:06:10.631Z</time>
      </trkpt>
      <trkpt lat="28.061842946335673" lon="-15.47534697689116">
        <ele>339.9229431152344</ele>
        <time>2019-11-01T11:06:14.078Z</time>
      </trkpt>
      <trkpt lat="28.06190094910562" lon="-15.47528394497931">
        <ele>339.7173767089844</ele>
        <time>2019-11-01T11:06:17.539Z</time>
      </trkpt>
      <trkpt lat="28.061958951875567" lon="-15.47522191889584">
        <ele>339.5251159667969</ele>
        <time>2019-11-01T11:06:21.013Z</time>
      </trkpt>
      <trkpt lat="28.062032964080572" lon="-15.475163999944925">
        <ele>339.5599060058594</ele>
        <time>2019-11-01T11:06:24.502Z</time>
      </trkpt>
      <trkpt lat="28.06211594492197" lon="-15.475113959982991">
        <ele>339.7955322265625</ele>
        <time>2019-11-01T11:06:28.007Z</time>
      </trkpt>
      <trkpt lat="28.062185933813453" lon="-15.475062998011708">
        <ele>339.8786926269531</ele>
        <time>2019-11-01T11:06:31.526Z</time>
      </trkpt>
      <trkpt lat="28.06226396933198" lon="-15.475000971928239">
        <ele>339.9528503417969</ele>
        <time>2019-11-01T11:06:35.060Z</time>
      </trkpt>
      <trkpt lat="28.062333958223462" lon="-15.474972976371646">
        <ele>340.5910339355469</ele>
        <time>2019-11-01T11:06:38.607Z</time>
      </trkpt>
      <trkpt lat="28.062369916588068" lon="-15.47492092475295">
        <ele>340.19580078125</ele>
        <time>2019-11-01T11:06:42.163Z</time>
      </trkpt>
      <trkpt lat="28.06241392157972" lon="-15.474848924204707">
        <ele>339.55279541015625</ele>
        <time>2019-11-01T11:06:45.732Z</time>
      </trkpt>
      <trkpt lat="28.062472930178046" lon="-15.474783964455128">
        <ele>339.29693603515625</ele>
        <time>2019-11-01T11:06:49.315Z</time>
      </trkpt>
      <trkpt lat="28.062537973746657" lon="-15.47470299527049">
        <ele>338.9288635253906</ele>
        <time>2019-11-01T11:06:52.914Z</time>
      </trkpt>
      <trkpt lat="28.062579967081547" lon="-15.474630994722247">
        <ele>338.206298828125</ele>
        <time>2019-11-01T11:06:56.526Z</time>
      </trkpt>
      <trkpt lat="28.062662947922945" lon="-15.474522951990366">
        <ele>337.7230529785156</ele>
        <time>2019-11-01T11:07:00.159Z</time>
      </trkpt>
      <trkpt lat="28.062726985663176" lon="-15.474444916471839">
        <ele>337.5912170410156</ele>
        <time>2019-11-01T11:07:03.808Z</time>
      </trkpt>
      <trkpt lat="28.062792951241136" lon="-15.474370988085866">
        <ele>337.58709716796875</ele>
        <time>2019-11-01T11:07:07.472Z</time>
      </trkpt>
      <trkpt lat="28.06286495178938" lon="-15.474291946738958">
        <ele>337.61627197265625</ele>
        <time>2019-11-01T11:07:11.153Z</time>
      </trkpt>
      <trkpt lat="28.062896970659494" lon="-15.474239978939295">
        <ele>337.2862243652344</ele>
        <time>2019-11-01T11:07:14.843Z</time>
      </trkpt>
      <trkpt lat="28.062942987307906" lon="-15.474156998097897">
        <ele>336.6427001953125</ele>
        <time>2019-11-01T11:07:18.548Z</time>
      </trkpt>
      <trkpt lat="28.062979951500893" lon="-15.474077956750989">
        <ele>335.8731689453125</ele>
        <time>2019-11-01T11:07:22.266Z</time>
      </trkpt>
      <trkpt lat="28.063007947057486" lon="-15.474000927060843">
        <ele>334.9402160644531</ele>
        <time>2019-11-01T11:07:25.996Z</time>
      </trkpt>
      <trkpt lat="28.06306293234229" lon="-15.473895985633135">
        <ele>334.05322265625</ele>
        <time>2019-11-01T11:07:29.744Z</time>
      </trkpt>
      <trkpt lat="28.063115989789367" lon="-15.47382197342813">
        <ele>333.7945556640625</ele>
        <time>2019-11-01T11:07:33.506Z</time>
      </trkpt>
      <trkpt lat="28.063174998387694" lon="-15.4737579356879">
        <ele>334.2177429199219</ele>
        <time>2019-11-01T11:07:37.282Z</time>
      </trkpt>
      <trkpt lat="28.063265942037106" lon="-15.47371594235301">
        <ele>335.6863098144531</ele>
        <time>2019-11-01T11:07:41.074Z</time>
      </trkpt>
      <trkpt lat="28.063288992270827" lon="-15.473710997030139">
        <ele>336.14056396484375</ele>
        <time>2019-11-01T11:07:44.870Z</time>
      </trkpt>
      <trkpt lat="28.063312964513898" lon="-15.473686940968037">
        <ele>336.3406982421875</ele>
        <time>2019-11-01T11:07:48.671Z</time>
      </trkpt>
      <trkpt lat="28.063344983384013" lon="-15.47362994402647">
        <ele>336.25</ele>
        <time>2019-11-01T11:07:52.482Z</time>
      </trkpt>
      <trkpt lat="28.063372978940606" lon="-15.473575964570045">
        <ele>336.11102294921875</ele>
        <time>2019-11-01T11:07:56.302Z</time>
      </trkpt>
      <trkpt lat="28.063418995589018" lon="-15.473494995385408">
        <ele>335.9942626953125</ele>
        <time>2019-11-01T11:08:00.137Z</time>
      </trkpt>
      <trkpt lat="28.06346593424678" lon="-15.473422994837165">
        <ele>336.4404296875</ele>
        <time>2019-11-01T11:08:03.985Z</time>
      </trkpt>
      <trkpt lat="28.063519997522235" lon="-15.473363986238837">
        <ele>337.4070739746094</ele>
        <time>2019-11-01T11:08:07.845Z</time>
      </trkpt>
      <trkpt lat="28.063567942008376" lon="-15.473301960155368">
        <ele>338.1247253417969</ele>
        <time>2019-11-01T11:08:11.717Z</time>
      </trkpt>
      <trkpt lat="28.063633991405368" lon="-15.47322291880846">
        <ele>339.2055969238281</ele>
        <time>2019-11-01T11:08:15.605Z</time>
      </trkpt>
      <trkpt lat="28.063693922013044" lon="-15.473152929916978">
        <ele>340.21124267578125</ele>
        <time>2019-11-01T11:08:19.508Z</time>
      </trkpt>
      <trkpt lat="28.063733987510204" lon="-15.473075984045863">
        <ele>340.44940185546875</ele>
        <time>2019-11-01T11:08:23.424Z</time>
      </trkpt>
      <trkpt lat="28.063826942816377" lon="-15.472840955480933">
        <ele>340.7442626953125</ele>
        <time>2019-11-01T11:08:27.378Z</time>
      </trkpt>
      <trkpt lat="28.063839934766293" lon="-15.472767949104309">
        <ele>340.39239501953125</ele>
        <time>2019-11-01T11:08:31.343Z</time>
      </trkpt>
      <trkpt lat="28.06385594420135" lon="-15.472654961049557">
        <ele>339.71014404296875</ele>
        <time>2019-11-01T11:08:35.325Z</time>
      </trkpt>
      <trkpt lat="28.063868936151266" lon="-15.472549935802817">
        <ele>338.9666748046875</ele>
        <time>2019-11-01T11:08:39.322Z</time>
      </trkpt>
      <trkpt lat="28.06387991644442" lon="-15.472474917769432">
        <ele>337.8340148925781</ele>
        <time>2019-11-01T11:08:43.331Z</time>
      </trkpt>
      <trkpt lat="28.063932973891497" lon="-15.47238196246326">
        <ele>338.1818542480469</ele>
        <time>2019-11-01T11:08:47.356Z</time>
      </trkpt>
      <trkpt lat="28.063995921984315" lon="-15.4723159968853">
        <ele>339.5516662597656</ele>
        <time>2019-11-01T11:08:51.395Z</time>
      </trkpt>
      <trkpt lat="28.06406599469483" lon="-15.472241984680295">
        <ele>341.0639953613281</ele>
        <time>2019-11-01T11:08:55.450Z</time>
      </trkpt>
      <trkpt lat="28.064123997464776" lon="-15.472170989960432">
        <ele>342.10565185546875</ele>
        <time>2019-11-01T11:08:59.519Z</time>
      </trkpt>
      <trkpt lat="28.064170936122537" lon="-15.472085997462273">
        <ele>342.99163818359375</ele>
        <time>2019-11-01T11:09:03.603Z</time>
      </trkpt>
      <trkpt lat="28.064202954992652" lon="-15.47201399691403">
        <ele>343.4627990722656</ele>
        <time>2019-11-01T11:09:07.699Z</time>
      </trkpt>
      <trkpt lat="28.064248971641064" lon="-15.471915928646922">
        <ele>344.2113037109375</ele>
        <time>2019-11-01T11:09:11.811Z</time>
      </trkpt>
      <trkpt lat="28.06435097940266" lon="-15.471842922270298">
        <ele>348.0993957519531</ele>
        <time>2019-11-01T11:09:15.943Z</time>
      </trkpt>
      <trkpt lat="28.064418956637383" lon="-15.47180193476379">
        <ele>350.8208312988281</ele>
        <time>2019-11-01T11:09:20.088Z</time>
      </trkpt>
      <trkpt lat="28.064472936093807" lon="-15.471773939207196">
        <ele>353.04193115234375</ele>
        <time>2019-11-01T11:09:24.243Z</time>
      </trkpt>
      <trkpt lat="28.06456496939063" lon="-15.47171794809401">
        <ele>356.7198181152344</ele>
        <time>2019-11-01T11:09:28.415Z</time>
      </trkpt>
      <trkpt lat="28.064619954675436" lon="-15.47165198251605">
        <ele>358.48809814453125</ele>
        <time>2019-11-01T11:09:32.601Z</time>
      </trkpt>
      <trkpt lat="28.064652979373932" lon="-15.471572941169143">
        <ele>359.02984619140625</ele>
        <time>2019-11-01T11:09:36.800Z</time>
      </trkpt>
      <trkpt lat="28.06471098214388" lon="-15.471487948670983">
        <ele>360.6918029785156</ele>
        <time>2019-11-01T11:09:41.015Z</time>
      </trkpt>
      <trkpt lat="28.064724979922175" lon="-15.471401950344443">
        <ele>360.22857666015625</ele>
        <time>2019-11-01T11:09:45.242Z</time>
      </trkpt>
      <trkpt lat="28.064724979922175" lon="-15.471322992816567">
        <ele>359.24560546875</ele>
        <time>2019-11-01T11:09:49.481Z</time>
      </trkpt>
      <trkpt lat="28.064770996570587" lon="-15.471230959519744">
        <ele>361.23321533203125</ele>
        <time>2019-11-01T11:09:53.736Z</time>
      </trkpt>
      <trkpt lat="28.064816929399967" lon="-15.471148984506726">
        <ele>363.24090576171875</ele>
        <time>2019-11-01T11:09:58.005Z</time>
      </trkpt>
      <trkpt lat="28.064836962148547" lon="-15.471066925674677">
        <ele>364.0054016113281</ele>
        <time>2019-11-01T11:10:02.286Z</time>
      </trkpt>
      <trkpt lat="28.064848948270082" lon="-15.470968941226602">
        <ele>364.34552001953125</ele>
        <time>2019-11-01T11:10:06.582Z</time>
      </trkpt>
      <trkpt lat="28.064871998503804" lon="-15.470882942900062">
        <ele>365.2453918457031</ele>
        <time>2019-11-01T11:10:10.891Z</time>
      </trkpt>
      <trkpt lat="28.064923966303468" lon="-15.470801973715425">
        <ele>367.5451354980469</ele>
        <time>2019-11-01T11:10:15.215Z</time>
      </trkpt>
      <trkpt lat="28.06499294936657" lon="-15.470739947631955">
        <ele>370.7069396972656</ele>
        <time>2019-11-01T11:10:19.554Z</time>
      </trkpt>
      <trkpt lat="28.065021950751543" lon="-15.470690997317433">
        <ele>371.9812927246094</ele>
        <time>2019-11-01T11:10:23.901Z</time>
      </trkpt>
      <trkpt lat="28.065072996541858" lon="-15.470591923221946">
        <ele>374.193359375</ele>
        <time>2019-11-01T11:10:28.265Z</time>
      </trkpt>
      <trkpt lat="28.065134938806295" lon="-15.470525957643986">
        <ele>376.0893859863281</ele>
        <time>2019-11-01T11:10:32.643Z</time>
      </trkpt>
      <trkpt lat="28.065201994031668" lon="-15.47044892795384">
        <ele>378.1467590332031</ele>
        <time>2019-11-01T11:10:37.037Z</time>
      </trkpt>
      <trkpt lat="28.06527592241764" lon="-15.470413975417614">
        <ele>380.3449401855469</ele>
        <time>2019-11-01T11:10:41.445Z</time>
      </trkpt>
      <trkpt lat="28.06533593684435" lon="-15.470381956547499">
        <ele>382.16436767578125</ele>
        <time>2019-11-01T11:10:45.864Z</time>
      </trkpt>
      <trkpt lat="28.06539997458458" lon="-15.470399977639318">
        <ele>383.6048889160156</ele>
        <time>2019-11-01T11:10:50.294Z</time>
      </trkpt>
      <trkpt lat="28.06548899039626" lon="-15.470458986237645">
        <ele>385.28131103515625</ele>
        <time>2019-11-01T11:10:54.741Z</time>
      </trkpt>
      <trkpt lat="28.06554992683232" lon="-15.470524951815605">
        <ele>386.5429382324219</ele>
        <time>2019-11-01T11:10:59.202Z</time>
      </trkpt>
      <trkpt lat="28.065601978451014" lon="-15.470481952652335">
        <ele>387.9076843261719</ele>
        <time>2019-11-01T11:11:03.674Z</time>
      </trkpt>
      <trkpt lat="28.065654952079058" lon="-15.470416992902756">
        <ele>389.86590576171875</ele>
        <time>2019-11-01T11:11:08.159Z</time>
      </trkpt>
      <trkpt lat="28.065711949020624" lon="-15.47034197486937">
        <ele>392.0220642089844</ele>
        <time>2019-11-01T11:11:12.658Z</time>
      </trkpt>
      <trkpt lat="28.06576894596219" lon="-15.47027894295752">
        <ele>394.0631408691406</ele>
        <time>2019-11-01T11:11:17.170Z</time>
      </trkpt>
      <trkpt lat="28.06580792181194" lon="-15.470208954066038">
        <ele>395.7169494628906</ele>
        <time>2019-11-01T11:11:21.695Z</time>
      </trkpt>
      <trkpt lat="28.065836923196912" lon="-15.47012697905302">
        <ele>397.2344970703125</ele>
        <time>2019-11-01T11:11:26.233Z</time>
      </trkpt>
      <trkpt lat="28.065888974815607" lon="-15.47006294131279">
        <ele>399.16064453125</ele>
        <time>2019-11-01T11:11:30.784Z</time>
      </trkpt>
      <trkpt lat="28.065949995070696" lon="-15.470002926886082">
        <ele>400.38189697265625</ele>
        <time>2019-11-01T11:11:35.348Z</time>
      </trkpt>
      <trkpt lat="28.065988970920444" lon="-15.46991097740829">
        <ele>400.65655517578125</ele>
        <time>2019-11-01T11:11:39.927Z</time>
      </trkpt>
      <trkpt lat="28.06600296869874" lon="-15.469816932454705">
        <ele>401.3409118652344</ele>
        <time>2019-11-01T11:11:44.520Z</time>
      </trkpt>
      <trkpt lat="28.06598193012178" lon="-15.469686929136515">
        <ele>402.9168701171875</ele>
        <time>2019-11-01T11:11:49.133Z</time>
      </trkpt>
      <trkpt lat="28.06604496203363" lon="-15.46963194385171">
        <ele>402.5679626464844</ele>
        <time>2019-11-01T11:11:53.759Z</time>
      </trkpt>
      <trkpt lat="28.06609872504181" lon="-15.469591120698071">
        <ele>402.2681884765625</ele>
        <time>2019-11-01T11:11:58.396Z</time>
      </trkpt>
      <trkpt lat="28.066098941490054" lon="-15.4695909563452">
        <ele>402.2669677734375</ele>
        <time>2019-11-01T11:12:03.033Z</time>
      </trkpt>
      <trkpt lat="28.06615493260324" lon="-15.46952398493886">
        <ele>402.27752685546875</ele>
        <time>2019-11-01T11:12:07.683Z</time>
      </trkpt>
      <trkpt lat="28.06622098200023" lon="-15.46946095302701">
        <ele>402.0792236328125</ele>
        <time>2019-11-01T11:12:12.348Z</time>
      </trkpt>
      <trkpt lat="28.06628292426467" lon="-15.469409991055727">
        <ele>401.7856750488281</ele>
        <time>2019-11-01T11:12:17.025Z</time>
      </trkpt>
      <trkpt lat="28.066307986155152" lon="-15.469334973022342">
        <ele>402.3848571777344</ele>
        <time>2019-11-01T11:12:21.714Z</time>
      </trkpt>
      <trkpt lat="28.066333970054984" lon="-15.469212932512164">
        <ele>402.71844482421875</ele>
        <time>2019-11-01T11:12:26.422Z</time>
      </trkpt>
      <trkpt lat="28.06632894091308" lon="-15.46911695972085">
        <ele>402.00341796875</ele>
        <time>2019-11-01T11:12:31.144Z</time>
      </trkpt>
      <trkpt lat="28.06628292426467" lon="-15.46902995556593">
        <ele>401.15625</ele>
        <time>2019-11-01T11:12:35.881Z</time>
      </trkpt>
      <trkpt lat="28.066269932314754" lon="-15.468937922269106">
        <ele>400.4313659667969</ele>
        <time>2019-11-01T11:12:40.631Z</time>
      </trkpt>
      <trkpt lat="28.066264986991882" lon="-15.46887799166143">
        <ele>399.9761962890625</ele>
        <time>2019-11-01T11:12:45.390Z</time>
      </trkpt>
      <trkpt lat="28.066264986991882" lon="-15.46877196058631">
        <ele>399.414794921875</ele>
        <time>2019-11-01T11:12:50.165Z</time>
      </trkpt>
      <trkpt lat="28.06628393009305" lon="-15.468664923682809">
        <ele>399.12042236328125</ele>
        <time>2019-11-01T11:12:54.956Z</time>
      </trkpt>
      <trkpt lat="28.066311925649643" lon="-15.468571968376637">
        <ele>398.9201965332031</ele>
        <time>2019-11-01T11:12:59.762Z</time>
      </trkpt>
      <trkpt lat="28.066334975883365" lon="-15.468487981706858">
        <ele>398.728515625</ele>
        <time>2019-11-01T11:13:04.581Z</time>
      </trkpt>
      <trkpt lat="28.066361965611577" lon="-15.468440959230065">
        <ele>398.6888122558594</ele>
        <time>2019-11-01T11:13:09.408Z</time>
      </trkpt>
      <trkpt lat="28.066385937854648" lon="-15.468381950631738">
        <ele>398.5914611816406</ele>
        <time>2019-11-01T11:13:14.244Z</time>
      </trkpt>
      <trkpt lat="28.066471936181188" lon="-15.468262927606702">
        <ele>398.70361328125</ele>
        <time>2019-11-01T11:13:19.103Z</time>
      </trkpt>
      <trkpt lat="28.066524993628263" lon="-15.468186987563968">
        <ele>398.8221740722656</ele>
        <time>2019-11-01T11:13:23.976Z</time>
      </trkpt>
      <trkpt lat="28.066574949771166" lon="-15.468109957873821">
        <ele>398.94708251953125</ele>
        <time>2019-11-01T11:13:28.863Z</time>
      </trkpt>
      <trkpt lat="28.06664996780455" lon="-15.468023959547281">
        <ele>399.06341552734375</ele>
        <time>2019-11-01T11:13:33.768Z</time>
      </trkpt>
      <trkpt lat="28.066701935604215" lon="-15.467938967049122">
        <ele>398.337646484375</ele>
        <time>2019-11-01T11:13:38.688Z</time>
      </trkpt>
      <trkpt lat="28.066737977787852" lon="-15.467855986207724">
        <ele>397.1992492675781</ele>
        <time>2019-11-01T11:13:43.622Z</time>
      </trkpt>
      <trkpt lat="28.066793968901038" lon="-15.467779962345958">
        <ele>396.2452392578125</ele>
        <time>2019-11-01T11:13:48.571Z</time>
      </trkpt>
      <trkpt lat="28.06681894697249" lon="-15.46770192682743">
        <ele>395.2752685546875</ele>
        <time>2019-11-01T11:13:53.532Z</time>
      </trkpt>
      <trkpt lat="28.06686395779252" lon="-15.467607965692878">
        <ele>394.1432189941406</ele>
        <time>2019-11-01T11:13:58.508Z</time>
      </trkpt>
      <trkpt lat="28.066918943077326" lon="-15.467531941831112">
        <ele>393.2718200683594</ele>
        <time>2019-11-01T11:14:03.499Z</time>
      </trkpt>
      <trkpt lat="28.066982980817556" lon="-15.467454995959997">
        <ele>392.4099426269531</ele>
        <time>2019-11-01T11:14:08.506Z</time>
      </trkpt>
      <trkpt lat="28.06703696027398" lon="-15.467361956834793">
        <ele>391.31158447265625</ele>
        <time>2019-11-01T11:14:13.529Z</time>
      </trkpt>
      <trkpt lat="28.06707593612373" lon="-15.467294985428452">
        <ele>390.5212097167969</ele>
        <time>2019-11-01T11:14:18.564Z</time>
      </trkpt>
      <trkpt lat="28.067110972478986" lon="-15.467209992930293">
        <ele>389.48358154296875</ele>
        <time>2019-11-01T11:14:23.613Z</time>
      </trkpt>
      <trkpt lat="28.067156989127398" lon="-15.46711997129023">
        <ele>389.5903625488281</ele>
        <time>2019-11-01T11:14:28.677Z</time>
      </trkpt>
      <trkpt lat="28.067203927785158" lon="-15.467050988227129">
        <ele>390.7789611816406</ele>
        <time>2019-11-01T11:14:33.754Z</time>
      </trkpt>
      <trkpt lat="28.06725195609033" lon="-15.466979993507266">
        <ele>392.00152587890625</ele>
        <time>2019-11-01T11:14:38.844Z</time>
      </trkpt>
      <trkpt lat="28.06729294359684" lon="-15.466895923018456">
        <ele>393.4111633300781</ele>
        <time>2019-11-01T11:14:43.948Z</time>
      </trkpt>
      <trkpt lat="28.067346923053265" lon="-15.466782934963703">
        <ele>395.3030090332031</ele>
        <time>2019-11-01T11:14:49.071Z</time>
      </trkpt>
      <trkpt lat="28.067386988550425" lon="-15.466706994920969">
        <ele>396.5836181640625</ele>
        <time>2019-11-01T11:14:54.207Z</time>
      </trkpt>
      <trkpt lat="28.06742194108665" lon="-15.466657960787416">
        <ele>397.43231201171875</ele>
        <time>2019-11-01T11:14:59.352Z</time>
      </trkpt>
      <trkpt lat="28.06750592775643" lon="-15.466597946360707">
        <ele>398.5699157714844</ele>
        <time>2019-11-01T11:15:04.514Z</time>
      </trkpt>
      <trkpt lat="28.067547921091318" lon="-15.466527957469225">
        <ele>399.7623291015625</ele>
        <time>2019-11-01T11:15:09.688Z</time>
      </trkpt>
      <trkpt lat="28.06759393773973" lon="-15.466447994112968">
        <ele>401.1199645996094</ele>
        <time>2019-11-01T11:15:14.876Z</time>
      </trkpt>
      <trkpt lat="28.067628974094987" lon="-15.466402983292937">
        <ele>400.6856689453125</ele>
        <time>2019-11-01T11:15:20.073Z</time>
      </trkpt>
      <trkpt lat="28.067690916359425" lon="-15.466319918632507">
        <ele>399.79852294921875</ele>
        <time>2019-11-01T11:15:25.286Z</time>
      </trkpt>
      <trkpt lat="28.067736933007836" lon="-15.46625998802483">
        <ele>398.39642333984375</ele>
        <time>2019-11-01T11:15:30.511Z</time>
      </trkpt>
      <trkpt lat="28.067800970748067" lon="-15.466148927807808">
        <ele>396.5116271972656</ele>
        <time>2019-11-01T11:15:35.755Z</time>
      </trkpt>
      <trkpt lat="28.06789292022586" lon="-15.466011967509985">
        <ele>393.6016845703125</ele>
        <time>2019-11-01T11:15:41.025Z</time>
      </trkpt>
      <trkpt lat="28.067925944924355" lon="-15.465930998325348">
        <ele>392.28387451171875</ele>
        <time>2019-11-01T11:15:46.308Z</time>
      </trkpt>
      <trkpt lat="28.068010937422514" lon="-15.46589495614171">
        <ele>389.92620849609375</ele>
        <time>2019-11-01T11:15:51.606Z</time>
      </trkpt>
      <trkpt lat="28.06801898404956" lon="-15.465818932279944">
        <ele>389.26739501953125</ele>
        <time>2019-11-01T11:15:56.915Z</time>
      </trkpt>
      <trkpt lat="28.068032981827855" lon="-15.465746931731701">
        <ele>388.4827880859375</ele>
        <time>2019-11-01T11:16:02.235Z</time>
      </trkpt>
      <trkpt lat="28.06804697960615" lon="-15.465663950890303">
        <ele>387.6322937011719</ele>
        <time>2019-11-01T11:16:07.567Z</time>
      </trkpt>
      <trkpt lat="28.068051924929023" lon="-15.46556998975575">
        <ele>386.9440002441406</ele>
        <time>2019-11-01T11:16:12.913Z</time>
      </trkpt>
      <trkpt lat="28.06806592270732" lon="-15.465479968115687">
        <ele>386.1875</ele>
        <time>2019-11-01T11:16:18.273Z</time>
      </trkpt>
      <trkpt lat="28.06806793436408" lon="-15.46537896618247">
        <ele>386.5003662109375</ele>
        <time>2019-11-01T11:16:23.648Z</time>
      </trkpt>
      <trkpt lat="28.0680669285357" lon="-15.465303948149085">
        <ele>386.7957458496094</ele>
        <time>2019-11-01T11:16:29.034Z</time>
      </trkpt>
      <trkpt lat="28.06806399486959" lon="-15.465233959257603">
        <ele>387.12158203125</ele>
        <time>2019-11-01T11:16:34.430Z</time>
      </trkpt>
      <trkpt lat="28.068074975162745" lon="-15.465128934010863">
        <ele>387.2229309082031</ele>
        <time>2019-11-01T11:16:39.842Z</time>
      </trkpt>
      <trkpt lat="28.068138929083943" lon="-15.465021980926394">
        <ele>385.9965515136719</ele>
        <time>2019-11-01T11:16:45.273Z</time>
      </trkpt>
      <trkpt lat="28.068156950175762" lon="-15.464965989813209">
        <ele>385.7440185546875</ele>
        <time>2019-11-01T11:16:50.713Z</time>
      </trkpt>
      <trkpt lat="28.068203972652555" lon="-15.464813942089677">
        <ele>382.19744873046875</ele>
        <time>2019-11-01T11:16:56.176Z</time>
      </trkpt>
      <trkpt lat="28.068242948502302" lon="-15.464735990390182">
        <ele>379.9060363769531</ele>
        <time>2019-11-01T11:17:01.652Z</time>
      </trkpt>
      <trkpt lat="28.06828494183719" lon="-15.464676981791854">
        <ele>378.36627197265625</ele>
        <time>2019-11-01T11:17:07.140Z</time>
      </trkpt>
      <trkpt lat="28.068351997062564" lon="-15.464587965980172">
        <ele>376.3630676269531</ele>
        <time>2019-11-01T11:17:12.645Z</time>
      </trkpt>
      <trkpt lat="28.068375969305634" lon="-15.464512947946787">
        <ele>374.216796875</ele>
        <time>2019-11-01T11:17:18.162Z</time>
      </trkpt>
      <trkpt lat="28.06838694959879" lon="-15.464422926306725">
        <ele>371.36383056640625</ele>
        <time>2019-11-01T11:17:23.692Z</time>
      </trkpt>
      <trkpt lat="28.06839097291231" lon="-15.46432494185865">
        <ele>368.1348571777344</ele>
        <time>2019-11-01T11:17:29.236Z</time>
      </trkpt>
      <trkpt lat="28.0684329662472" lon="-15.464236931875348">
        <ele>365.7110595703125</ele>
        <time>2019-11-01T11:17:34.795Z</time>
      </trkpt>
      <trkpt lat="28.068469930440187" lon="-15.464144982397556">
        <ele>362.1785583496094</ele>
        <time>2019-11-01T11:17:40.369Z</time>
      </trkpt>
      <trkpt lat="28.068508990108967" lon="-15.464061917737126">
        <ele>358.91943359375</ele>
        <time>2019-11-01T11:17:45.957Z</time>
      </trkpt>
      <trkpt lat="28.068554922938347" lon="-15.463987989351153">
        <ele>355.8847351074219</ele>
        <time>2019-11-01T11:17:51.558Z</time>
      </trkpt>
      <trkpt lat="28.068591970950365" lon="-15.463910959661007">
        <ele>352.85247802734375</ele>
        <time>2019-11-01T11:17:57.172Z</time>
      </trkpt>
      <trkpt lat="28.068637987598777" lon="-15.463822949677706">
        <ele>349.4512023925781</ele>
        <time>2019-11-01T11:18:02.801Z</time>
      </trkpt>
      <trkpt lat="28.068684926256537" lon="-15.463739968836308">
        <ele>348.1911315917969</ele>
        <time>2019-11-01T11:18:08.445Z</time>
      </trkpt>
      <trkpt lat="28.06873295456171" lon="-15.463673919439316">
        <ele>347.0601501464844</ele>
        <time>2019-11-01T11:18:14.101Z</time>
      </trkpt>
      <trkpt lat="28.06883697398007" lon="-15.463606948032975">
        <ele>345.2496643066406</ele>
        <time>2019-11-01T11:18:19.777Z</time>
      </trkpt>
      <trkpt lat="28.068898916244507" lon="-15.463582975789905">
        <ele>344.3051452636719</ele>
        <time>2019-11-01T11:18:25.464Z</time>
      </trkpt>
      <trkpt lat="28.068940993398428" lon="-15.463511981070042">
        <ele>343.20404052734375</ele>
        <time>2019-11-01T11:18:31.164Z</time>
      </trkpt>
      <trkpt lat="28.06901592761278" lon="-15.463518938049674">
        <ele>342.3634338378906</ele>
        <time>2019-11-01T11:18:36.876Z</time>
      </trkpt>
      <trkpt lat="28.069083988666534" lon="-15.463513992726803">
        <ele>341.5052795410156</ele>
        <time>2019-11-01T11:18:42.600Z</time>
      </trkpt>
      <trkpt lat="28.069155989214778" lon="-15.463468981906772">
        <ele>340.2633972167969</ele>
        <time>2019-11-01T11:18:48.337Z</time>
      </trkpt>
      <trkpt lat="28.069240981712937" lon="-15.463424976915121">
        <ele>338.87408447265625</ele>
        <time>2019-11-01T11:18:54.090Z</time>
      </trkpt>
      <trkpt lat="28.069318933412433" lon="-15.463393963873386">
        <ele>337.2685852050781</ele>
        <time>2019-11-01T11:18:59.857Z</time>
      </trkpt>
      <trkpt lat="28.069393951445818" lon="-15.4634019266814">
        <ele>335.8953552246094</ele>
        <time>2019-11-01T11:19:05.636Z</time>
      </trkpt>
      <trkpt lat="28.069454971700907" lon="-15.463350964710116">
        <ele>334.29595947265625</ele>
        <time>2019-11-01T11:19:11.428Z</time>
      </trkpt>
      <trkpt lat="28.06955094449222" lon="-15.4633379727602">
        <ele>332.3444519042969</ele>
        <time>2019-11-01T11:19:17.236Z</time>
      </trkpt>
      <trkpt lat="28.06959394365549" lon="-15.463271923363209">
        <ele>330.96429443359375</ele>
        <time>2019-11-01T11:19:23.056Z</time>
      </trkpt>
      <trkpt lat="28.069642977789044" lon="-15.463192965835333">
        <ele>329.35986328125</ele>
        <time>2019-11-01T11:19:28.890Z</time>
      </trkpt>
      <trkpt lat="28.0697229411453" lon="-15.46316497027874">
        <ele>327.5896911621094</ele>
        <time>2019-11-01T11:19:34.738Z</time>
      </trkpt>
      <trkpt lat="28.06977043324337" lon="-15.46313563175977">
        <ele>326.4316101074219</ele>
        <time>2019-11-01T11:19:40.595Z</time>
      </trkpt>
      <trkpt lat="28.06984081425547" lon="-15.463149547576904">
        <ele>325.1973876953125</ele>
        <time>2019-11-01T11:19:46.464Z</time>
      </trkpt>
      <trkpt lat="28.069987976923585" lon="-15.46310093253851">
        <ele>321.9640197753906</ele>
        <time>2019-11-01T11:19:52.358Z</time>
      </trkpt>
      <trkpt lat="28.07006794027984" lon="-15.46310193836689">
        <ele>318.9859619140625</ele>
        <time>2019-11-01T11:19:58.266Z</time>
      </trkpt>
      <trkpt lat="28.07015393860638" lon="-15.463109984993935">
        <ele>317.04266357421875</ele>
        <time>2019-11-01T11:20:04.188Z</time>
      </trkpt>
      <trkpt lat="28.070244966074824" lon="-15.463115936145186">
        <ele>315.6749572753906</ele>
        <time>2019-11-01T11:20:10.125Z</time>
      </trkpt>
      <trkpt lat="28.07032593525946" lon="-15.463136974722147">
        <ele>314.3072814941406</ele>
        <time>2019-11-01T11:20:16.076Z</time>
      </trkpt>
      <trkpt lat="28.0704086013204" lon="-15.463172760534416">
        <ele>312.7735900878906</ele>
        <time>2019-11-01T11:20:22.042Z</time>
      </trkpt>
      <trkpt lat="28.07040899991989" lon="-15.463172933086753">
        <ele>312.7662048339844</ele>
        <time>2019-11-01T11:20:28.008Z</time>
      </trkpt>
      <trkpt lat="28.070483934134245" lon="-15.463204951956868">
        <ele>311.3800048828125</ele>
        <time>2019-11-01T11:20:33.987Z</time>
      </trkpt>
      <trkpt lat="28.07055593468249" lon="-15.463258931413293">
        <ele>309.8252258300781</ele>
        <time>2019-11-01T11:20:39.980Z</time>
      </trkpt>
      <trkpt lat="28.07062692940235" lon="-15.463325986638665">
        <ele>308.2682189941406</ele>
        <time>2019-11-01T11:20:45.989Z</time>
      </trkpt>
      <trkpt lat="28.07071192190051" lon="-15.463386923074722">
        <ele>306.9848937988281</ele>
        <time>2019-11-01T11:20:52.015Z</time>
      </trkpt>
      <trkpt lat="28.070766991004348" lon="-15.46344492584467">
        <ele>306.04229736328125</ele>
        <time>2019-11-01T11:20:58.053Z</time>
      </trkpt>
      <trkpt lat="28.07083697989583" lon="-15.463493959978223">
        <ele>304.99237060546875</ele>
        <time>2019-11-01T11:21:04.105Z</time>
      </trkpt>
      <trkpt lat="28.070907974615693" lon="-15.463544921949506">
        <ele>303.9200439453125</ele>
        <time>2019-11-01T11:21:10.171Z</time>
      </trkpt>
      <trkpt lat="28.07098399847746" lon="-15.463611977174878">
        <ele>302.1685485839844</ele>
        <time>2019-11-01T11:21:16.253Z</time>
      </trkpt>
      <trkpt lat="28.07105692103505" lon="-15.46365899965167">
        <ele>300.3990783691406</ele>
        <time>2019-11-01T11:21:22.349Z</time>
      </trkpt>
      <trkpt lat="28.0711199529469" lon="-15.46363896690309">
        <ele>299.3292236328125</ele>
        <time>2019-11-01T11:21:28.456Z</time>
      </trkpt>
      <trkpt lat="28.071141997352242" lon="-15.463572917506099">
        <ele>299.18023681640625</ele>
        <time>2019-11-01T11:21:34.573Z</time>
      </trkpt>
      <trkpt lat="28.071108972653747" lon="-15.463493959978223">
        <ele>300.3274841308594</ele>
        <time>2019-11-01T11:21:40.703Z</time>
      </trkpt>
      <trkpt lat="28.071078965440392" lon="-15.463429922237992">
        <ele>301.3236999511719</ele>
        <time>2019-11-01T11:21:46.844Z</time>
      </trkpt>
      <trkpt lat="28.07102993130684" lon="-15.463339984416962">
        <ele>302.8633728027344</ele>
        <time>2019-11-01T11:21:53.000Z</time>
      </trkpt>
      <trkpt lat="28.071014927700162" lon="-15.463258931413293">
        <ele>303.6556091308594</ele>
        <time>2019-11-01T11:21:59.168Z</time>
      </trkpt>
      <trkpt lat="28.070978969335556" lon="-15.463185925036669">
        <ele>304.8270263671875</ele>
        <time>2019-11-01T11:22:05.349Z</time>
      </trkpt>
      <trkpt lat="28.070932952687144" lon="-15.46312297694385">
        <ele>306.1432189941406</ele>
        <time>2019-11-01T11:22:11.542Z</time>
      </trkpt>
      <trkpt lat="28.07089699432254" lon="-15.463006971403956">
        <ele>307.3332214355469</ele>
        <time>2019-11-01T11:22:17.753Z</time>
      </trkpt>
      <trkpt lat="28.070887941867113" lon="-15.462981993332505">
        <ele>307.1675720214844</ele>
        <time>2019-11-01T11:22:23.968Z</time>
      </trkpt>
      <trkpt lat="28.070872938260436" lon="-15.462933965027332">
        <ele>305.65484619140625</ele>
        <time>2019-11-01T11:22:30.190Z</time>
      </trkpt>
      <trkpt lat="28.0708419252187" lon="-15.462874956429005">
        <ele>303.9774169921875</ele>
        <time>2019-11-01T11:22:36.422Z</time>
      </trkpt>
      <trkpt lat="28.070796998217702" lon="-15.46282491646707">
        <ele>302.8231201171875</ele>
        <time>2019-11-01T11:22:42.665Z</time>
      </trkpt>
      <trkpt lat="28.070734972134233" lon="-15.462780995294452">
        <ele>302.13525390625</ele>
        <time>2019-11-01T11:22:48.920Z</time>
      </trkpt>
      <trkpt lat="28.07066297158599" lon="-15.462743947282434">
        <ele>301.83837890625</ele>
        <time>2019-11-01T11:22:55.188Z</time>
      </trkpt>
      <trkpt lat="28.070586947724223" lon="-15.462709916755557">
        <ele>301.7080383300781</ele>
        <time>2019-11-01T11:23:01.470Z</time>
      </trkpt>
      <trkpt lat="28.0705139413476" lon="-15.462676975876093">
        <ele>301.573486328125</ele>
        <time>2019-11-01T11:23:07.765Z</time>
      </trkpt>
      <trkpt lat="28.07045099325478" lon="-15.4626489803195">
        <ele>301.47210693359375</ele>
        <time>2019-11-01T11:23:14.071Z</time>
      </trkpt>
      <trkpt lat="28.070379998534918" lon="-15.462618973106146">
        <ele>301.7390441894531</ele>
        <time>2019-11-01T11:23:20.390Z</time>
      </trkpt>
      <trkpt lat="28.070306992158294" lon="-15.462583936750889">
        <ele>301.91796875</ele>
        <time>2019-11-01T11:23:26.722Z</time>
      </trkpt>
      <trkpt lat="28.070230968296528" lon="-15.462541943416">
        <ele>301.9258117675781</ele>
        <time>2019-11-01T11:23:33.068Z</time>
      </trkpt>
      <trkpt lat="28.070139940828085" lon="-15.46250095590949">
        <ele>302.23626708984375</ele>
        <time>2019-11-01T11:23:39.430Z</time>
      </trkpt>
      <trkpt lat="28.070050925016403" lon="-15.462471954524517">
        <ele>302.9522399902344</ele>
        <time>2019-11-01T11:23:45.808Z</time>
      </trkpt>
      <trkpt lat="28.06995394639671" lon="-15.462451921775937">
        <ele>304.16497802734375</ele>
        <time>2019-11-01T11:23:52.202Z</time>
      </trkpt>
      <trkpt lat="28.06988898664713" lon="-15.462403977289796">
        <ele>303.8588562011719</ele>
        <time>2019-11-01T11:23:58.609Z</time>
      </trkpt>
      <trkpt lat="28.069876916706562" lon="-15.462360978126526">
        <ele>302.3976135253906</ele>
        <time>2019-11-01T11:24:05.023Z</time>
      </trkpt>
      <trkpt lat="28.069896949455142" lon="-15.462340945377946">
        <ele>301.36407470703125</ele>
        <time>2019-11-01T11:24:11.441Z</time>
      </trkpt>
      <trkpt lat="28.06993399746716" lon="-15.462336922064424">
        <ele>300.82257080078125</ele>
        <time>2019-11-01T11:24:17.865Z</time>
      </trkpt>
      <trkpt lat="28.069982947781682" lon="-15.462333988398314">
        <ele>299.787841796875</ele>
        <time>2019-11-01T11:24:24.298Z</time>
      </trkpt>
      <trkpt lat="28.07004497386515" lon="-15.462315967306495">
        <ele>298.0133361816406</ele>
        <time>2019-11-01T11:24:30.741Z</time>
      </trkpt>
      <trkpt lat="28.070118986070156" lon="-15.46230498701334">
        <ele>296.2650451660156</ele>
        <time>2019-11-01T11:24:37.197Z</time>
      </trkpt>
      <trkpt lat="28.0701909866184" lon="-15.462288977578282">
        <ele>294.45062255859375</ele>
        <time>2019-11-01T11:24:43.665Z</time>
      </trkpt>
      <trkpt lat="28.070261981338263" lon="-15.462266933172941">
        <ele>292.4588317871094</ele>
        <time>2019-11-01T11:24:50.145Z</time>
      </trkpt>
      <trkpt lat="28.070333981886506" lon="-15.462245978415012">
        <ele>290.48419189453125</ele>
        <time>2019-11-01T11:24:56.637Z</time>
      </trkpt>
      <trkpt lat="28.07040799409151" lon="-15.462225945666432">
        <ele>288.5032653808594</ele>
        <time>2019-11-01T11:25:03.142Z</time>
      </trkpt>
      <trkpt lat="28.07048996910453" lon="-15.462207924574614">
        <ele>286.44415283203125</ele>
        <time>2019-11-01T11:25:09.661Z</time>
      </trkpt>
      <trkpt lat="28.070569932460785" lon="-15.462192920967937">
        <ele>284.5190124511719</ele>
        <time>2019-11-01T11:25:16.193Z</time>
      </trkpt>
      <trkpt lat="28.070652997121215" lon="-15.46217699535191">
        <ele>282.5082092285156</ele>
        <time>2019-11-01T11:25:22.739Z</time>
      </trkpt>
      <trkpt lat="28.070735977962613" lon="-15.462164925411344">
        <ele>280.6238098144531</ele>
        <time>2019-11-01T11:25:29.299Z</time>
      </trkpt>
      <trkpt lat="28.070823987945914" lon="-15.462157968431711">
        <ele>278.7896423339844</ele>
        <time>2019-11-01T11:25:35.874Z</time>
      </trkpt>
      <trkpt lat="28.070917949080467" lon="-15.46215495094657">
        <ele>276.9682922363281</ele>
        <time>2019-11-01T11:25:42.465Z</time>
      </trkpt>
      <trkpt lat="28.07101098820567" lon="-15.462161991745234">
        <ele>275.4871826171875</ele>
        <time>2019-11-01T11:25:49.071Z</time>
      </trkpt>
      <trkpt lat="28.07109396904707" lon="-15.46217992901802">
        <ele>274.53985595703125</ele>
        <time>2019-11-01T11:25:55.691Z</time>
      </trkpt>
      <trkpt lat="28.071107678719564" lon="-15.462188172509514">
        <ele>274.5733642578125</ele>
        <time>2019-11-01T11:26:02.314Z</time>
      </trkpt>
      <trkpt lat="28.071279766308344" lon="-15.46224296092987">
        <ele>273.2419128417969</ele>
        <time>2019-11-01T11:26:08.966Z</time>
      </trkpt>
      <trkpt lat="28.071360233452832" lon="-15.462441444396973">
        <ele>278.8414001464844</ele>
        <time>2019-11-01T11:26:15.651Z</time>
      </trkpt>
      <trkpt lat="28.071369700171736" lon="-15.462318062782288">
        <ele>274.21868896484375</ele>
        <time>2019-11-01T11:26:22.354Z</time>
      </trkpt>
      <trkpt lat="28.071426500467734" lon="-15.46226978302002">
        <ele>271.3905029296875</ele>
        <time>2019-11-01T11:26:29.069Z</time>
      </trkpt>
      <trkpt lat="28.071454900604472" lon="-15.462360978126526">
        <ele>274.1278076171875</ele>
        <time>2019-11-01T11:26:35.798Z</time>
      </trkpt>
      <trkpt lat="28.071525900913446" lon="-15.462419986724854">
        <ele>274.8609619140625</ele>
        <time>2019-11-01T11:26:42.542Z</time>
      </trkpt>
      <trkpt lat="28.071536242263335" lon="-15.462120909703117">
        <ele>264.1614074707031</ele>
        <time>2019-11-01T11:26:49.330Z</time>
      </trkpt>
      <trkpt lat="28.071551956236362" lon="-15.462077921256423">
        <ele>262.5703125</ele>
        <time>2019-11-01T11:26:56.125Z</time>
      </trkpt>
      <trkpt lat="28.071575928479433" lon="-15.461981948465109">
        <ele>259.2314147949219</ele>
        <time>2019-11-01T11:27:02.934Z</time>
      </trkpt>
      <trkpt lat="28.071573916822672" lon="-15.461752954870462">
        <ele>252.4013671875</ele>
        <time>2019-11-01T11:27:09.777Z</time>
      </trkpt>
      <trkpt lat="28.071534940972924" lon="-15.461665950715542">
        <ele>250.53988647460938</ele>
        <time>2019-11-01T11:27:16.634Z</time>
      </trkpt>
      <trkpt lat="28.071488924324512" lon="-15.46159696765244">
        <ele>249.31008911132812</ele>
        <time>2019-11-01T11:27:23.504Z</time>
      </trkpt>
      <trkpt lat="28.07143695652485" lon="-15.461527984589338">
        <ele>246.64227294921875</ele>
        <time>2019-11-01T11:27:30.388Z</time>
      </trkpt>
      <trkpt lat="28.071379959583282" lon="-15.461457995697856">
        <ele>243.961181640625</ele>
        <time>2019-11-01T11:27:37.286Z</time>
      </trkpt>
      <trkpt lat="28.071319945156574" lon="-15.46138197183609">
        <ele>241.0375213623047</ele>
        <time>2019-11-01T11:27:44.199Z</time>
      </trkpt>
      <trkpt lat="28.07124693877995" lon="-15.461315922439098">
        <ele>239.04022216796875</ele>
        <time>2019-11-01T11:27:51.127Z</time>
      </trkpt>
      <trkpt lat="28.071190947666764" lon="-15.461282981559634">
        <ele>239.21803283691406</ele>
        <time>2019-11-01T11:27:58.066Z</time>
      </trkpt>
      <trkpt lat="28.071160249208077" lon="-15.46126130567768">
        <ele>239.29815673828125</ele>
        <time>2019-11-01T11:28:05.011Z</time>
      </trkpt>
      <trkpt lat="28.07100049751582" lon="-15.461186170578005">
        <ele>239.8959197998047</ele>
        <time>2019-11-01T11:28:11.984Z</time>
      </trkpt>
      <trkpt lat="28.070792228791227" lon="-15.461245179176332">
        <ele>241.75660705566406</ele>
        <time>2019-11-01T11:28:18.993Z</time>
      </trkpt>
    </trkseg>
  </trk>
</gpx>
